<?xml version="1.0" encoding="UTF-8" standalone="no" ?><gpx xmlns="http://www.topografix.com/GPX/1/1" xmlns:gpxx="http://www.garmin.com/xmlschemas/GpxExtensions/v3" xmlns:wptx1="http://www.garmin.com/xmlschemas/WaypointExtension/v1" xmlns:gpxtpx="http://www.garmin.com/xmlschemas/TrackPointExtension/v1" creator="GuideVTT.com" version="1.1" xmlns:xsi="http://www.w3.org/2001/XMLSchema-instance" xsi:schemaLocation="http://www.topografix.com/GPX/1/1 http://www.topografix.com/GPX/1/1/gpx.xsd http://www.garmin.com/xmlschemas/GpxExtensions/v3 http://www8.garmin.com/xmlschemas/GpxExtensionsv3.xsd http://www.garmin.com/xmlschemas/WaypointExtension/v1 http://www8.garmin.com/xmlschemas/WaypointExtensionv1.xsd http://www.garmin.com/xmlschemas/TrackPointExtension/v1 http://www.garmin.com/xmlschemas/TrackPointExtensionv1.xsd">
<metadata><link href="http://www.garmin.com"><text>Garmin International</text></link><time>2013-06-22T15:13:50Z</time></metadata>
<trk><name>003-delemont-stursanne.gpx</name><extensions><gpxx:TrackExtension><gpxx:DisplayColor>Cyan</gpxx:DisplayColor></gpxx:TrackExtension></extensions><trkseg>
<trkpt lat="47.37191297" lon="7.34036797"><ele>499.062012</ele><time>2008-07-27T07:19:57Z</time></trkpt>
<trkpt lat="47.37192596" lon="7.34036403"><ele>499.062012</ele><time>2008-07-27T07:19:58Z</time></trkpt>
<trkpt lat="47.37227599" lon="7.34022103"><ele>503.868011</ele><time>2008-07-27T07:20:25Z</time></trkpt>
<trkpt lat="47.37262401" lon="7.34008801"><ele>507.713989</ele><time>2008-07-27T07:20:54Z</time></trkpt>
<trkpt lat="47.37296498" lon="7.33991400"><ele>510.117004</ele><time>2008-07-27T07:21:18Z</time></trkpt>
<trkpt lat="47.37308300" lon="7.33988601"><ele>510.596985</ele><time>2008-07-27T07:21:26Z</time></trkpt>
<trkpt lat="47.37328199" lon="7.33986103"><ele>511.55899</ele><time>2008-07-27T07:21:40Z</time></trkpt>
<trkpt lat="47.37349799" lon="7.33983999"><ele>512.52002</ele><time>2008-07-27T07:21:54Z</time></trkpt>
<trkpt lat="47.37383997" lon="7.33965098"><ele>513.481018</ele><time>2008-07-27T07:22:16Z</time></trkpt>
<trkpt lat="47.37418103" lon="7.33944898"><ele>514.922974</ele><time>2008-07-27T07:22:38Z</time></trkpt>
<trkpt lat="47.37451698" lon="7.33926499"><ele>517.327026</ele><time>2008-07-27T07:23:01Z</time></trkpt>
<trkpt lat="47.37461002" lon="7.33908797"><ele>518.768982</ele><time>2008-07-27T07:23:13Z</time></trkpt>
<trkpt lat="47.37472099" lon="7.33876803"><ele>521.653015</ele><time>2008-07-27T07:23:31Z</time></trkpt>
<trkpt lat="47.37494001" lon="7.33833200"><ele>525.017029</ele><time>2008-07-27T07:23:57Z</time></trkpt>
<trkpt lat="47.37516699" lon="7.33790704"><ele>529.343018</ele><time>2008-07-27T07:24:26Z</time></trkpt>
<trkpt lat="47.37525702" lon="7.33777897"><ele>530.304016</ele><time>2008-07-27T07:24:35Z</time></trkpt>
<trkpt lat="47.37549003" lon="7.33733397"><ele>534.150024</ele><time>2008-07-27T07:25:01Z</time></trkpt>
<trkpt lat="47.37565700" lon="7.33686400"><ele>537.513977</ele><time>2008-07-27T07:25:26Z</time></trkpt>
<trkpt lat="47.37582799" lon="7.33638296"><ele>540.879028</ele><time>2008-07-27T07:25:50Z</time></trkpt>
<trkpt lat="47.37598700" lon="7.33589396"><ele>544.244019</ele><time>2008-07-27T07:26:17Z</time></trkpt>
<trkpt lat="47.37618799" lon="7.33544896"><ele>547.607971</ele><time>2008-07-27T07:26:43Z</time></trkpt>
<trkpt lat="47.37649502" lon="7.33517596"><ele>550.973022</ele><time>2008-07-27T07:27:09Z</time></trkpt>
<trkpt lat="47.37680499" lon="7.33490498"><ele>553.375977</ele><time>2008-07-27T07:27:33Z</time></trkpt>
<trkpt lat="47.37705099" lon="7.33453299"><ele>556.26001</ele><time>2008-07-27T07:27:59Z</time></trkpt>
<trkpt lat="47.37708603" lon="7.33397802"><ele>557.221008</ele><time>2008-07-27T07:28:18Z</time></trkpt>
<trkpt lat="47.37708301" lon="7.33340001"><ele>557.221008</ele><time>2008-07-27T07:28:32Z</time></trkpt>
<trkpt lat="47.37707597" lon="7.33282199"><ele>556.741028</ele><time>2008-07-27T07:28:43Z</time></trkpt>
<trkpt lat="47.37706902" lon="7.33226803"><ele>557.221008</ele><time>2008-07-27T07:28:54Z</time></trkpt>
<trkpt lat="47.37705602" lon="7.33169203"><ele>557.702026</ele><time>2008-07-27T07:29:06Z</time></trkpt>
<trkpt lat="47.37704496" lon="7.33111602"><ele>558.182983</ele><time>2008-07-27T07:29:18Z</time></trkpt>
<trkpt lat="47.37703599" lon="7.33058201"><ele>559.143982</ele><time>2008-07-27T07:29:29Z</time></trkpt>
<trkpt lat="47.37702099" lon="7.33002302"><ele>559.143982</ele><time>2008-07-27T07:29:40Z</time></trkpt>
<trkpt lat="47.37697799" lon="7.32947602"><ele>560.10498</ele><time>2008-07-27T07:29:51Z</time></trkpt>
<trkpt lat="47.37693499" lon="7.32894603"><ele>560.585999</ele><time>2008-07-27T07:30:02Z</time></trkpt>
<trkpt lat="47.37688696" lon="7.32839400"><ele>562.028015</ele><time>2008-07-27T07:30:15Z</time></trkpt>
<trkpt lat="47.37683197" lon="7.32784004"><ele>563.469971</ele><time>2008-07-27T07:30:30Z</time></trkpt>
<trkpt lat="47.37678898" lon="7.32729698"><ele>564.43103</ele><time>2008-07-27T07:30:44Z</time></trkpt>
<trkpt lat="47.37673902" lon="7.32674796"><ele>565.393005</ele><time>2008-07-27T07:30:58Z</time></trkpt>
<trkpt lat="47.37669099" lon="7.32619802"><ele>565.872986</ele><time>2008-07-27T07:31:11Z</time></trkpt>
<trkpt lat="47.37662704" lon="7.32565404"><ele>565.872986</ele><time>2008-07-27T07:31:23Z</time></trkpt>
<trkpt lat="47.37658697" lon="7.32518801"><ele>565.872986</ele><time>2008-07-27T07:31:32Z</time></trkpt>
<trkpt lat="47.37655596" lon="7.32484200"><ele>565.393005</ele><time>2008-07-27T07:31:39Z</time></trkpt>
<trkpt lat="47.37650600" lon="7.32428603"><ele>565.872986</ele><time>2008-07-27T07:31:50Z</time></trkpt>
<trkpt lat="47.37646099" lon="7.32375302"><ele>566.354004</ele><time>2008-07-27T07:32:01Z</time></trkpt>
<trkpt lat="47.37640701" lon="7.32321097"><ele>566.833984</ele><time>2008-07-27T07:32:12Z</time></trkpt>
<trkpt lat="47.37635898" lon="7.32268400"><ele>566.354004</ele><time>2008-07-27T07:32:22Z</time></trkpt>
<trkpt lat="47.37629503" lon="7.32211503"><ele>565.393005</ele><time>2008-07-27T07:32:31Z</time></trkpt>
<trkpt lat="47.37625304" lon="7.32152796"><ele>563.469971</ele><time>2008-07-27T07:32:38Z</time></trkpt>
<trkpt lat="47.37623803" lon="7.32109001"><ele>562.989014</ele><time>2008-07-27T07:32:43Z</time></trkpt>
<trkpt lat="47.37621096" lon="7.32077803"><ele>562.989014</ele><time>2008-07-27T07:32:47Z</time></trkpt>
<trkpt lat="47.37619503" lon="7.32063403"><ele>562.508972</ele><time>2008-07-27T07:32:49Z</time></trkpt>
<trkpt lat="47.37616897" lon="7.32050101"><ele>562.028015</ele><time>2008-07-27T07:32:51Z</time></trkpt>
<trkpt lat="47.37611901" lon="7.32020496"><ele>562.028015</ele><time>2008-07-27T07:32:56Z</time></trkpt>
<trkpt lat="47.37599697" lon="7.31981596"><ele>562.028015</ele><time>2008-07-27T07:33:03Z</time></trkpt>
<trkpt lat="47.37583403" lon="7.31933903"><ele>561.546997</ele><time>2008-07-27T07:33:11Z</time></trkpt>
<trkpt lat="47.37559598" lon="7.31880401"><ele>562.989014</ele><time>2008-07-27T07:33:22Z</time></trkpt>
<trkpt lat="47.37548802" lon="7.31843898"><ele>564.43103</ele><time>2008-07-27T07:33:31Z</time></trkpt>
<trkpt lat="47.37541803" lon="7.31819297"><ele>565.393005</ele><time>2008-07-27T07:33:38Z</time></trkpt>
<trkpt lat="47.37533597" lon="7.31792299"><ele>565.872986</ele><time>2008-07-27T07:33:46Z</time></trkpt>
<trkpt lat="47.37516004" lon="7.31744296"><ele>566.354004</ele><time>2008-07-27T07:33:59Z</time></trkpt>
<trkpt lat="47.37501101" lon="7.31696201"><ele>567.315002</ele><time>2008-07-27T07:34:12Z</time></trkpt>
<trkpt lat="47.37488201" lon="7.31643696"><ele>568.757019</ele><time>2008-07-27T07:34:27Z</time></trkpt>
<trkpt lat="47.37478000" lon="7.31592500"><ele>570.679993</ele><time>2008-07-27T07:34:43Z</time></trkpt>
<trkpt lat="47.37468604" lon="7.31540197"><ele>573.083008</ele><time>2008-07-27T07:35:01Z</time></trkpt>
<trkpt lat="47.37471504" lon="7.31485899"><ele>575.96698</ele><time>2008-07-27T07:35:24Z</time></trkpt>
<trkpt lat="47.37478201" lon="7.31433696"><ele>580.29303</ele><time>2008-07-27T07:35:51Z</time></trkpt>
<trkpt lat="47.37483297" lon="7.31380597"><ele>583.656982</ele><time>2008-07-27T07:36:16Z</time></trkpt>
<trkpt lat="47.37478796" lon="7.31328101"><ele>585.580017</ele><time>2008-07-27T07:36:40Z</time></trkpt>
<trkpt lat="47.37466902" lon="7.31291296"><ele>587.021973</ele><time>2008-07-27T07:36:57Z</time></trkpt>
<trkpt lat="47.37463097" lon="7.31281799"><ele>587.502991</ele><time>2008-07-27T07:37:02Z</time></trkpt>
<trkpt lat="47.37455696" lon="7.31245204"><ele>587.502991</ele><time>2008-07-27T07:37:14Z</time></trkpt>
<trkpt lat="47.37451002" lon="7.31228398"><ele>587.021973</ele><time>2008-07-27T07:37:19Z</time></trkpt>
<trkpt lat="47.37437398" lon="7.31177604"><ele>586.060974</ele><time>2008-07-27T07:37:29Z</time></trkpt>
<trkpt lat="47.37431103" lon="7.31155199"><ele>586.060974</ele><time>2008-07-27T07:37:33Z</time></trkpt>
<trkpt lat="47.37418296" lon="7.31107900"><ele>585.580017</ele><time>2008-07-27T07:37:42Z</time></trkpt>
<trkpt lat="47.37413703" lon="7.31091002"><ele>585.099976</ele><time>2008-07-27T07:37:45Z</time></trkpt>
<trkpt lat="47.37400199" lon="7.31040400"><ele>584.619019</ele><time>2008-07-27T07:37:55Z</time></trkpt>
<trkpt lat="47.37386000" lon="7.30990897"><ele>584.619019</ele><time>2008-07-27T07:38:06Z</time></trkpt>
<trkpt lat="47.37373704" lon="7.30947303"><ele>585.580017</ele><time>2008-07-27T07:38:16Z</time></trkpt>
<trkpt lat="47.37371600" lon="7.30924596"><ele>587.021973</ele><time>2008-07-27T07:38:22Z</time></trkpt>
<trkpt lat="47.37369597" lon="7.30907497"><ele>587.982971</ele><time>2008-07-27T07:38:27Z</time></trkpt>
<trkpt lat="47.37366303" lon="7.30887196"><ele>588.463989</ele><time>2008-07-27T07:38:33Z</time></trkpt>
<trkpt lat="47.37357703" lon="7.30854297"><ele>588.463989</ele><time>2008-07-27T07:38:41Z</time></trkpt>
<trkpt lat="47.37343404" lon="7.30803201"><ele>588.463989</ele><time>2008-07-27T07:38:53Z</time></trkpt>
<trkpt lat="47.37330403" lon="7.30748903"><ele>587.502991</ele><time>2008-07-27T07:39:04Z</time></trkpt>
<trkpt lat="47.37325198" lon="7.30727697"><ele>586.541992</ele><time>2008-07-27T07:39:07Z</time></trkpt>
<trkpt lat="47.37314000" lon="7.30691403"><ele>586.060974</ele><time>2008-07-27T07:39:12Z</time></trkpt>
<trkpt lat="47.37303598" lon="7.30656903"><ele>585.580017</ele><time>2008-07-27T07:39:17Z</time></trkpt>
<trkpt lat="47.37296004" lon="7.30634901"><ele>585.099976</ele><time>2008-07-27T07:39:20Z</time></trkpt>
<trkpt lat="47.37270699" lon="7.30599001"><ele>584.619019</ele><time>2008-07-27T07:39:26Z</time></trkpt>
<trkpt lat="47.37252301" lon="7.30586101"><ele>584.138</ele><time>2008-07-27T07:39:30Z</time></trkpt>
<trkpt lat="47.37222503" lon="7.30542800"><ele>583.656982</ele><time>2008-07-27T07:39:40Z</time></trkpt>
<trkpt lat="47.37213400" lon="7.30522399"><ele>584.619019</ele><time>2008-07-27T07:39:45Z</time></trkpt>
<trkpt lat="47.37209100" lon="7.30505803"><ele>585.099976</ele><time>2008-07-27T07:39:50Z</time></trkpt>
<trkpt lat="47.37205203" lon="7.30488000"><ele>586.060974</ele><time>2008-07-27T07:39:56Z</time></trkpt>
<trkpt lat="47.37201800" lon="7.30473298"><ele>586.541992</ele><time>2008-07-27T07:40:01Z</time></trkpt>
<trkpt lat="47.37193502" lon="7.30444103"><ele>588.945007</ele><time>2008-07-27T07:40:11Z</time></trkpt>
<trkpt lat="47.37188397" lon="7.30434900"><ele>590.387024</ele><time>2008-07-27T07:40:15Z</time></trkpt>
<trkpt lat="47.37185597" lon="7.30431204"><ele>590.387024</ele><time>2008-07-27T07:40:17Z</time></trkpt>
<trkpt lat="47.37176998" lon="7.30425898"><ele>590.867004</ele><time>2008-07-27T07:40:22Z</time></trkpt>
<trkpt lat="47.37140000" lon="7.30422503"><ele>591.828979</ele><time>2008-07-27T07:40:38Z</time></trkpt>
<trkpt lat="47.37108601" lon="7.30397601"><ele>595.192993</ele><time>2008-07-27T07:40:55Z</time></trkpt>
<trkpt lat="47.37098400" lon="7.30365900"><ele>596.63501</ele><time>2008-07-27T07:41:07Z</time></trkpt>
<trkpt lat="47.37065803" lon="7.30332700"><ele>597.596985</ele><time>2008-07-27T07:41:27Z</time></trkpt>
<trkpt lat="47.37045804" lon="7.30310597"><ele>596.63501</ele><time>2008-07-27T07:41:36Z</time></trkpt>
<trkpt lat="47.37038604" lon="7.30306297"><ele>596.63501</ele><time>2008-07-27T07:41:44Z</time></trkpt>
<trkpt lat="47.37035897" lon="7.30301402"><ele>596.63501</ele><time>2008-07-27T07:41:55Z</time></trkpt>
<trkpt lat="47.37035000" lon="7.30299700"><ele>596.63501</ele><time>2008-07-27T07:42:03Z</time></trkpt>
<trkpt lat="47.37035402" lon="7.30299097"><ele>597.116028</ele><time>2008-07-27T07:42:20Z</time></trkpt>
<trkpt lat="47.37036198" lon="7.30299801"><ele>597.116028</ele><time>2008-07-27T07:42:27Z</time></trkpt>
<trkpt lat="47.37028303" lon="7.30275602"><ele>595.192993</ele><time>2008-07-27T07:42:36Z</time></trkpt>
<trkpt lat="47.37024204" lon="7.30222796"><ele>594.231995</ele><time>2008-07-27T07:42:47Z</time></trkpt>
<trkpt lat="47.37018798" lon="7.30167300"><ele>595.674011</ele><time>2008-07-27T07:42:59Z</time></trkpt>
<trkpt lat="47.37017004" lon="7.30138700"><ele>596.63501</ele><time>2008-07-27T07:43:06Z</time></trkpt>
<trkpt lat="47.37000098" lon="7.30086196"><ele>594.231995</ele><time>2008-07-27T07:43:14Z</time></trkpt>
<trkpt lat="47.36995798" lon="7.30071100"><ele>594.231995</ele><time>2008-07-27T07:43:16Z</time></trkpt>
<trkpt lat="47.36970099" lon="7.30038403"><ele>591.348022</ele><time>2008-07-27T07:43:22Z</time></trkpt>
<trkpt lat="47.36951399" lon="7.30022200"><ele>590.387024</ele><time>2008-07-27T07:43:25Z</time></trkpt>
<trkpt lat="47.36929203" lon="7.30006099"><ele>588.463989</ele><time>2008-07-27T07:43:28Z</time></trkpt>
<trkpt lat="47.36912498" lon="7.29998404"><ele>587.982971</ele><time>2008-07-27T07:43:30Z</time></trkpt>
<trkpt lat="47.36873397" lon="7.29957903"><ele>587.021973</ele><time>2008-07-27T07:43:36Z</time></trkpt>
<trkpt lat="47.36860598" lon="7.29938197"><ele>587.021973</ele><time>2008-07-27T07:43:39Z</time></trkpt>
<trkpt lat="47.36831596" lon="7.29884502"><ele>584.138</ele><time>2008-07-27T07:43:46Z</time></trkpt>
<trkpt lat="47.36825704" lon="7.29877898"><ele>583.177002</ele><time>2008-07-27T07:43:47Z</time></trkpt>
<trkpt lat="47.36780098" lon="7.29844596"><ele>578.851013</ele><time>2008-07-27T07:43:53Z</time></trkpt>
<trkpt lat="47.36754801" lon="7.29810700"><ele>576.927979</ele><time>2008-07-27T07:44:03Z</time></trkpt>
<trkpt lat="47.36752002" lon="7.29780701"><ele>577.890015</ele><time>2008-07-27T07:44:11Z</time></trkpt>
<trkpt lat="47.36751499" lon="7.29754097"><ele>578.851013</ele><time>2008-07-27T07:44:18Z</time></trkpt>
<trkpt lat="47.36756301" lon="7.29701702"><ele>579.812012</ele><time>2008-07-27T07:44:31Z</time></trkpt>
<trkpt lat="47.36767902" lon="7.29654402"><ele>580.773987</ele><time>2008-07-27T07:44:43Z</time></trkpt>
<trkpt lat="47.36782696" lon="7.29603600"><ele>581.734985</ele><time>2008-07-27T07:44:55Z</time></trkpt>
<trkpt lat="47.36802997" lon="7.29555597"><ele>581.734985</ele><time>2008-07-27T07:45:06Z</time></trkpt>
<trkpt lat="47.36831797" lon="7.29515104"><ele>581.734985</ele><time>2008-07-27T07:45:16Z</time></trkpt>
<trkpt lat="47.36860396" lon="7.29480897"><ele>581.734985</ele><time>2008-07-27T07:45:25Z</time></trkpt>
<trkpt lat="47.36895600" lon="7.29466799"><ele>581.254028</ele><time>2008-07-27T07:45:35Z</time></trkpt>
<trkpt lat="47.36922397" lon="7.29459599"><ele>580.29303</ele><time>2008-07-27T07:45:41Z</time></trkpt>
<trkpt lat="47.36926697" lon="7.29458199"><ele>580.29303</ele><time>2008-07-27T07:45:42Z</time></trkpt>
<trkpt lat="47.36961298" lon="7.29451200"><ele>579.812012</ele><time>2008-07-27T07:45:50Z</time></trkpt>
<trkpt lat="47.36983996" lon="7.29451301"><ele>578.851013</ele><time>2008-07-27T07:45:55Z</time></trkpt>
<trkpt lat="47.37012704" lon="7.29430103"><ele>579.33197</ele><time>2008-07-27T07:46:03Z</time></trkpt>
<trkpt lat="47.37026601" lon="7.29406902"><ele>580.773987</ele><time>2008-07-27T07:46:10Z</time></trkpt>
<trkpt lat="47.37032996" lon="7.29396299"><ele>581.734985</ele><time>2008-07-27T07:46:15Z</time></trkpt>
<trkpt lat="47.37041202" lon="7.29385796"><ele>582.216003</ele><time>2008-07-27T07:46:20Z</time></trkpt>
<trkpt lat="47.37054798" lon="7.29381303"><ele>583.656982</ele><time>2008-07-27T07:46:27Z</time></trkpt>
<trkpt lat="47.37078301" lon="7.29382602"><ele>586.060974</ele><time>2008-07-27T07:46:39Z</time></trkpt>
<trkpt lat="47.37102298" lon="7.29373399"><ele>587.982971</ele><time>2008-07-27T07:46:49Z</time></trkpt>
<trkpt lat="47.37118500" lon="7.29359100"><ele>589.426025</ele><time>2008-07-27T07:46:59Z</time></trkpt>
<trkpt lat="47.37139396" lon="7.29316603"><ele>592.309998</ele><time>2008-07-27T07:47:22Z</time></trkpt>
<trkpt lat="47.37166897" lon="7.29282598"><ele>597.116028</ele><time>2008-07-27T07:47:49Z</time></trkpt>
<trkpt lat="47.37202998" lon="7.29271500"><ele>599.518982</ele><time>2008-07-27T07:48:08Z</time></trkpt>
<trkpt lat="47.37224397" lon="7.29270101"><ele>600</ele><time>2008-07-27T07:48:20Z</time></trkpt>
<trkpt lat="47.37260498" lon="7.29253999"><ele>602.403015</ele><time>2008-07-27T07:48:39Z</time></trkpt>
<trkpt lat="47.37265100" lon="7.29251199"><ele>602.403015</ele><time>2008-07-27T07:48:42Z</time></trkpt>
<trkpt lat="47.37270598" lon="7.29230898"><ele>603.36499</ele><time>2008-07-27T07:48:54Z</time></trkpt>
<trkpt lat="47.37267002" lon="7.29218904"><ele>604.325989</ele><time>2008-07-27T07:49:06Z</time></trkpt>
<trkpt lat="47.37266399" lon="7.29218602"><ele>604.807007</ele><time>2008-07-27T07:49:12Z</time></trkpt>
<trkpt lat="47.37301502" lon="7.29220002"><ele>609.132996</ele><time>2008-07-27T07:49:42Z</time></trkpt>
<trkpt lat="47.37314603" lon="7.29218703"><ele>611.054993</ele><time>2008-07-27T07:49:54Z</time></trkpt>
<trkpt lat="47.37330596" lon="7.29218703"><ele>613.939026</ele><time>2008-07-27T07:50:09Z</time></trkpt>
<trkpt lat="47.37334502" lon="7.29220597"><ele>615.380981</ele><time>2008-07-27T07:50:14Z</time></trkpt>
<trkpt lat="47.37338198" lon="7.29220597"><ele>616.822998</ele><time>2008-07-27T07:50:20Z</time></trkpt>
<trkpt lat="47.37340302" lon="7.29221402"><ele>617.304016</ele><time>2008-07-27T07:50:22Z</time></trkpt>
<trkpt lat="47.37357200" lon="7.29200003"><ele>620.187988</ele><time>2008-07-27T07:50:31Z</time></trkpt>
<trkpt lat="47.37369698" lon="7.29189500"><ele>621.148987</ele><time>2008-07-27T07:50:38Z</time></trkpt>
<trkpt lat="47.37386202" lon="7.29187204"><ele>624.03302</ele><time>2008-07-27T07:50:50Z</time></trkpt>
<trkpt lat="47.37397701" lon="7.29185997"><ele>625.474976</ele><time>2008-07-27T07:50:58Z</time></trkpt>
<trkpt lat="47.37435697" lon="7.29171898"><ele>628.359009</ele><time>2008-07-27T07:51:22Z</time></trkpt>
<trkpt lat="47.37453600" lon="7.29175000"><ele>629.320007</ele><time>2008-07-27T07:51:34Z</time></trkpt>
<trkpt lat="47.37477003" lon="7.29179501"><ele>631.723022</ele><time>2008-07-27T07:51:49Z</time></trkpt>
<trkpt lat="47.37492098" lon="7.29182702"><ele>634.127014</ele><time>2008-07-27T07:52:02Z</time></trkpt>
<trkpt lat="47.37509399" lon="7.29231996"><ele>637.971985</ele><time>2008-07-27T07:52:32Z</time></trkpt>
<trkpt lat="47.37517102" lon="7.29264996"><ele>641.817017</ele><time>2008-07-27T07:52:51Z</time></trkpt>
<trkpt lat="47.37523204" lon="7.29287602"><ele>644.221008</ele><time>2008-07-27T07:53:04Z</time></trkpt>
<trkpt lat="47.37536103" lon="7.29338204"><ele>648.065979</ele><time>2008-07-27T07:53:32Z</time></trkpt>
<trkpt lat="47.37543496" lon="7.29389803"><ele>652.392029</ele><time>2008-07-27T07:54:01Z</time></trkpt>
<trkpt lat="47.37552800" lon="7.29441502"><ele>655.757019</ele><time>2008-07-27T07:54:28Z</time></trkpt>
<trkpt lat="47.37555600" lon="7.29449004"><ele>656.718018</ele><time>2008-07-27T07:54:32Z</time></trkpt>
<trkpt lat="47.37558500" lon="7.29456598"><ele>657.197998</ele><time>2008-07-27T07:54:36Z</time></trkpt>
<trkpt lat="47.37571802" lon="7.29510100"><ele>659.60199</ele><time>2008-07-27T07:55:02Z</time></trkpt>
<trkpt lat="47.37575901" lon="7.29542898"><ele>661.044006</ele><time>2008-07-27T07:55:17Z</time></trkpt>
<trkpt lat="47.37578499" lon="7.29576300"><ele>664.40802</ele><time>2008-07-27T07:55:33Z</time></trkpt>
<trkpt lat="47.37579698" lon="7.29586501"><ele>664.888977</ele><time>2008-07-27T07:55:38Z</time></trkpt>
<trkpt lat="47.37584199" lon="7.29642903"><ele>667.291992</ele><time>2008-07-27T07:56:07Z</time></trkpt>
<trkpt lat="47.37593997" lon="7.29695097"><ele>669.215027</ele><time>2008-07-27T07:56:29Z</time></trkpt>
<trkpt lat="47.37603896" lon="7.29723101"><ele>671.617981</ele><time>2008-07-27T07:56:44Z</time></trkpt>
<trkpt lat="47.37604097" lon="7.29733603"><ele>672.098999</ele><time>2008-07-27T07:56:49Z</time></trkpt>
<trkpt lat="47.37606101" lon="7.29750400"><ele>673.541016</ele><time>2008-07-27T07:56:57Z</time></trkpt>
<trkpt lat="47.37606796" lon="7.29762504"><ele>674.502014</ele><time>2008-07-27T07:57:02Z</time></trkpt>
<trkpt lat="47.37606000" lon="7.29770601"><ele>674.982971</ele><time>2008-07-27T07:57:06Z</time></trkpt>
<trkpt lat="47.37614600" lon="7.29825804"><ele>678.828003</ele><time>2008-07-27T07:57:30Z</time></trkpt>
<trkpt lat="47.37627701" lon="7.29877202"><ele>682.672974</ele><time>2008-07-27T07:57:54Z</time></trkpt>
<trkpt lat="47.37628598" lon="7.29886003"><ele>683.63501</ele><time>2008-07-27T07:57:58Z</time></trkpt>
<trkpt lat="47.37629302" lon="7.29894804"><ele>684.11499</ele><time>2008-07-27T07:58:02Z</time></trkpt>
<trkpt lat="47.37631800" lon="7.29924702"><ele>686.038025</ele><time>2008-07-27T07:58:16Z</time></trkpt>
<trkpt lat="47.37634499" lon="7.29940896"><ele>686.999023</ele><time>2008-07-27T07:58:23Z</time></trkpt>
<trkpt lat="47.37635203" lon="7.29945397"><ele>687.47998</ele><time>2008-07-27T07:58:25Z</time></trkpt>
<trkpt lat="47.37636804" lon="7.29954500"><ele>687.960999</ele><time>2008-07-27T07:58:29Z</time></trkpt>
<trkpt lat="47.37638002" lon="7.29968598"><ele>688.921997</ele><time>2008-07-27T07:58:36Z</time></trkpt>
<trkpt lat="47.37638396" lon="7.29982101"><ele>689.403015</ele><time>2008-07-27T07:58:42Z</time></trkpt>
<trkpt lat="47.37640098" lon="7.29988396"><ele>689.882996</ele><time>2008-07-27T07:58:45Z</time></trkpt>
<trkpt lat="47.37641699" lon="7.30001497"><ele>690.843994</ele><time>2008-07-27T07:58:51Z</time></trkpt>
<trkpt lat="47.37643601" lon="7.30013701"><ele>691.80603</ele><time>2008-07-27T07:58:56Z</time></trkpt>
<trkpt lat="47.37645504" lon="7.30025503"><ele>692.286987</ele><time>2008-07-27T07:59:02Z</time></trkpt>
<trkpt lat="47.37655898" lon="7.30080597"><ele>696.132019</ele><time>2008-07-27T07:59:26Z</time></trkpt>
<trkpt lat="47.37661304" lon="7.30123504"><ele>699.015991</ele><time>2008-07-27T07:59:44Z</time></trkpt>
<trkpt lat="47.37664497" lon="7.30135004"><ele>699.495972</ele><time>2008-07-27T07:59:56Z</time></trkpt>
<trkpt lat="47.37669401" lon="7.30132900"><ele>699.495972</ele><time>2008-07-27T08:00:07Z</time></trkpt>
<trkpt lat="47.37670700" lon="7.30151801"><ele>700.937988</ele><time>2008-07-27T08:00:27Z</time></trkpt>
<trkpt lat="47.37672502" lon="7.30157199"><ele>700.937988</ele><time>2008-07-27T08:00:40Z</time></trkpt>
<trkpt lat="47.37673097" lon="7.30167400"><ele>701.419006</ele><time>2008-07-27T08:00:50Z</time></trkpt>
<trkpt lat="47.37673600" lon="7.30168699"><ele>701.900024</ele><time>2008-07-27T08:01:01Z</time></trkpt>
<trkpt lat="47.37672301" lon="7.30168004"><ele>701.419006</ele><time>2008-07-27T08:02:01Z</time></trkpt>
<trkpt lat="47.37673198" lon="7.30169001"><ele>701.900024</ele><time>2008-07-27T08:02:16Z</time></trkpt>
<trkpt lat="47.37676601" lon="7.30164802"><ele>701.419006</ele><time>2008-07-27T08:03:32Z</time></trkpt>
<trkpt lat="47.37671002" lon="7.30165900"><ele>700.937988</ele><time>2008-07-27T08:05:10Z</time></trkpt>
<trkpt lat="47.37671899" lon="7.30168599"><ele>700.458008</ele><time>2008-07-27T08:06:09Z</time></trkpt>
<trkpt lat="47.37680004" lon="7.30195999"><ele>702.380005</ele><time>2008-07-27T08:06:22Z</time></trkpt>
<trkpt lat="47.37689601" lon="7.30225101"><ele>704.302979</ele><time>2008-07-27T08:06:37Z</time></trkpt>
<trkpt lat="47.37695301" lon="7.30235604"><ele>705.263977</ele><time>2008-07-27T08:06:43Z</time></trkpt>
<trkpt lat="47.37698402" lon="7.30239904"><ele>706.226013</ele><time>2008-07-27T08:06:46Z</time></trkpt>
<trkpt lat="47.37702903" lon="7.30247498"><ele>707.187012</ele><time>2008-07-27T08:06:51Z</time></trkpt>
<trkpt lat="47.37706399" lon="7.30255502"><ele>707.187012</ele><time>2008-07-27T08:06:55Z</time></trkpt>
<trkpt lat="47.37711797" lon="7.30270699"><ele>708.14801</ele><time>2008-07-27T08:07:02Z</time></trkpt>
<trkpt lat="47.37726096" lon="7.30323496"><ele>711.031982</ele><time>2008-07-27T08:07:29Z</time></trkpt>
<trkpt lat="47.37741200" lon="7.30372597"><ele>714.877014</ele><time>2008-07-27T08:07:55Z</time></trkpt>
<trkpt lat="47.37755701" lon="7.30421296"><ele>717.760986</ele><time>2008-07-27T08:08:20Z</time></trkpt>
<trkpt lat="47.37771803" lon="7.30468897"><ele>719.684021</ele><time>2008-07-27T08:08:43Z</time></trkpt>
<trkpt lat="47.37793101" lon="7.30512600"><ele>723.049011</ele><time>2008-07-27T08:09:09Z</time></trkpt>
<trkpt lat="47.37818900" lon="7.30552398"><ele>726.413025</ele><time>2008-07-27T08:09:35Z</time></trkpt>
<trkpt lat="47.37841900" lon="7.30595103"><ele>730.258972</ele><time>2008-07-27T08:10:02Z</time></trkpt>
<trkpt lat="47.37858899" lon="7.30642796"><ele>733.622986</ele><time>2008-07-27T08:10:31Z</time></trkpt>
<trkpt lat="47.37888202" lon="7.30676098"><ele>736.987976</ele><time>2008-07-27T08:10:58Z</time></trkpt>
<trkpt lat="47.37905603" lon="7.30723003"><ele>740.833008</ele><time>2008-07-27T08:11:28Z</time></trkpt>
<trkpt lat="47.37926398" lon="7.30766396"><ele>746.119995</ele><time>2008-07-27T08:11:57Z</time></trkpt>
<trkpt lat="47.37935803" lon="7.30773102"><ele>747.562012</ele><time>2008-07-27T08:12:05Z</time></trkpt>
<trkpt lat="47.37954704" lon="7.30800100"><ele>750.927002</ele><time>2008-07-27T08:12:25Z</time></trkpt>
<trkpt lat="47.37966900" lon="7.30825799"><ele>753.810974</ele><time>2008-07-27T08:12:43Z</time></trkpt>
<trkpt lat="47.37985298" lon="7.30867700"><ele>758.617004</ele><time>2008-07-27T08:13:12Z</time></trkpt>
<trkpt lat="47.37977897" lon="7.30879200"><ele>759.098022</ele><time>2008-07-27T08:13:22Z</time></trkpt>
<trkpt lat="47.37957001" lon="7.30874799"><ele>759.098022</ele><time>2008-07-27T08:13:33Z</time></trkpt>
<trkpt lat="47.37941997" lon="7.30869602"><ele>758.137024</ele><time>2008-07-27T08:13:38Z</time></trkpt>
<trkpt lat="47.37921503" lon="7.30859502"><ele>757.656006</ele><time>2008-07-27T08:13:43Z</time></trkpt>
<trkpt lat="47.37894799" lon="7.30841800"><ele>757.176025</ele><time>2008-07-27T08:13:49Z</time></trkpt>
<trkpt lat="47.37876300" lon="7.30828799"><ele>757.176025</ele><time>2008-07-27T08:13:54Z</time></trkpt>
<trkpt lat="47.37844398" lon="7.30804400"><ele>759.578979</ele><time>2008-07-27T08:14:11Z</time></trkpt>
<trkpt lat="47.37829998" lon="7.30792698"><ele>761.020996</ele><time>2008-07-27T08:14:20Z</time></trkpt>
<trkpt lat="47.37799496" lon="7.30761803"><ele>762.942993</ele><time>2008-07-27T08:14:40Z</time></trkpt>
<trkpt lat="47.37767704" lon="7.30736297"><ele>764.866028</ele><time>2008-07-27T08:14:59Z</time></trkpt>
<trkpt lat="47.37732098" lon="7.30723799"><ele>765.828003</ele><time>2008-07-27T08:15:17Z</time></trkpt>
<trkpt lat="47.37700799" lon="7.30724302"><ele>767.27002</ele><time>2008-07-27T08:15:32Z</time></trkpt>
<trkpt lat="47.37688897" lon="7.30767201"><ele>769.192017</ele><time>2008-07-27T08:15:51Z</time></trkpt>
<trkpt lat="47.37701001" lon="7.30801701"><ele>770.633972</ele><time>2008-07-27T08:16:06Z</time></trkpt>
<trkpt lat="47.37712601" lon="7.30833904"><ele>772.075989</ele><time>2008-07-27T08:16:18Z</time></trkpt>
<trkpt lat="47.37735199" lon="7.30876501"><ele>773.999023</ele><time>2008-07-27T08:16:36Z</time></trkpt>
<trkpt lat="47.37763999" lon="7.30912702"><ele>775.921021</ele><time>2008-07-27T08:16:55Z</time></trkpt>
<trkpt lat="47.37788198" lon="7.30954000"><ele>777.362976</ele><time>2008-07-27T08:17:12Z</time></trkpt>
<trkpt lat="47.37807300" lon="7.31002497"><ele>779.765991</ele><time>2008-07-27T08:17:29Z</time></trkpt>
<trkpt lat="47.37821197" lon="7.31052102"><ele>781.208984</ele><time>2008-07-27T08:17:45Z</time></trkpt>
<trkpt lat="47.37822697" lon="7.31060701"><ele>781.689026</ele><time>2008-07-27T08:17:48Z</time></trkpt>
<trkpt lat="47.37836796" lon="7.31112602"><ele>785.054016</ele><time>2008-07-27T08:18:10Z</time></trkpt>
<trkpt lat="47.37854197" lon="7.31157202"><ele>787.45697</ele><time>2008-07-27T08:18:31Z</time></trkpt>
<trkpt lat="47.37871497" lon="7.31205096"><ele>789.380005</ele><time>2008-07-27T08:18:50Z</time></trkpt>
<trkpt lat="47.37880499" lon="7.31240300"><ele>789.859985</ele><time>2008-07-27T08:19:01Z</time></trkpt>
<trkpt lat="47.37895796" lon="7.31291598"><ele>792.263977</ele><time>2008-07-27T08:19:18Z</time></trkpt>
<trkpt lat="47.37912702" lon="7.31339903"><ele>793.705994</ele><time>2008-07-27T08:19:36Z</time></trkpt>
<trkpt lat="47.37926398" lon="7.31392600"><ele>795.146973</ele><time>2008-07-27T08:19:53Z</time></trkpt>
<trkpt lat="47.37941402" lon="7.31443604"><ele>796.590027</ele><time>2008-07-27T08:20:10Z</time></trkpt>
<trkpt lat="47.37952600" lon="7.31495303"><ele>798.992981</ele><time>2008-07-27T08:20:28Z</time></trkpt>
<trkpt lat="47.37961502" lon="7.31548897"><ele>801.395996</ele><time>2008-07-27T08:20:47Z</time></trkpt>
<trkpt lat="47.37969498" lon="7.31602902"><ele>803.31897</ele><time>2008-07-27T08:21:06Z</time></trkpt>
<trkpt lat="47.37975600" lon="7.31655397"><ele>804.760986</ele><time>2008-07-27T08:21:24Z</time></trkpt>
<trkpt lat="47.37985700" lon="7.31706401"><ele>805.721985</ele><time>2008-07-27T08:21:39Z</time></trkpt>
<trkpt lat="47.37986002" lon="7.31728203"><ele>805.241028</ele><time>2008-07-27T08:21:44Z</time></trkpt>
<trkpt lat="47.37986899" lon="7.31739996"><ele>805.241028</ele><time>2008-07-27T08:21:48Z</time></trkpt>
<trkpt lat="47.37992699" lon="7.31777798"><ele>804.760986</ele><time>2008-07-27T08:21:58Z</time></trkpt>
<trkpt lat="47.38008097" lon="7.31779701"><ele>805.241028</ele><time>2008-07-27T08:22:06Z</time></trkpt>
<trkpt lat="47.38031801" lon="7.31733802"><ele>804.760986</ele><time>2008-07-27T08:22:20Z</time></trkpt>
<trkpt lat="47.38046704" lon="7.31702202"><ele>804.280029</ele><time>2008-07-27T08:22:27Z</time></trkpt>
<trkpt lat="47.38063803" lon="7.31675497"><ele>803.799988</ele><time>2008-07-27T08:22:33Z</time></trkpt>
<trkpt lat="47.38078798" lon="7.31665799"><ele>802.356995</ele><time>2008-07-27T08:22:36Z</time></trkpt>
<trkpt lat="47.38092503" lon="7.31663796"><ele>801.395996</ele><time>2008-07-27T08:22:38Z</time></trkpt>
<trkpt lat="47.38121303" lon="7.31665699"><ele>800.434998</ele><time>2008-07-27T08:22:42Z</time></trkpt>
<trkpt lat="47.38162299" lon="7.31696603"><ele>800.434998</ele><time>2008-07-27T08:22:49Z</time></trkpt>
<trkpt lat="47.38167403" lon="7.31711104"><ele>799.953979</ele><time>2008-07-27T08:22:51Z</time></trkpt>
<trkpt lat="47.38176799" lon="7.31749300"><ele>800.434998</ele><time>2008-07-27T08:22:59Z</time></trkpt>
<trkpt lat="47.38181200" lon="7.31736903"><ele>801.877014</ele><time>2008-07-27T08:23:09Z</time></trkpt>
<trkpt lat="47.38180102" lon="7.31729502"><ele>802.838013</ele><time>2008-07-27T08:23:13Z</time></trkpt>
<trkpt lat="47.38179800" lon="7.31727197"><ele>802.838013</ele><time>2008-07-27T08:23:14Z</time></trkpt>
<trkpt lat="47.38178099" lon="7.31721103"><ele>803.799988</ele><time>2008-07-27T08:23:18Z</time></trkpt>
<trkpt lat="47.38177604" lon="7.31719896"><ele>803.799988</ele><time>2008-07-27T08:23:19Z</time></trkpt>
<trkpt lat="47.38175802" lon="7.31716401"><ele>804.280029</ele><time>2008-07-27T08:23:22Z</time></trkpt>
<trkpt lat="47.38176498" lon="7.31705798"><ele>805.241028</ele><time>2008-07-27T08:23:26Z</time></trkpt>
<trkpt lat="47.38177101" lon="7.31687299"><ele>806.203003</ele><time>2008-07-27T08:23:33Z</time></trkpt>
<trkpt lat="47.38173204" lon="7.31661701"><ele>808.606018</ele><time>2008-07-27T08:23:43Z</time></trkpt>
<trkpt lat="47.38162500" lon="7.31646102"><ele>810.528992</ele><time>2008-07-27T08:23:55Z</time></trkpt>
<trkpt lat="47.38160002" lon="7.31642196"><ele>810.528992</ele><time>2008-07-27T08:23:58Z</time></trkpt>
<trkpt lat="47.38142903" lon="7.31604301"><ele>814.374023</ele><time>2008-07-27T08:24:21Z</time></trkpt>
<trkpt lat="47.38141000" lon="7.31598602"><ele>814.85498</ele><time>2008-07-27T08:24:24Z</time></trkpt>
<trkpt lat="47.38138997" lon="7.31590496"><ele>815.815979</ele><time>2008-07-27T08:24:28Z</time></trkpt>
<trkpt lat="47.38136600" lon="7.31583204"><ele>816.776978</ele><time>2008-07-27T08:24:32Z</time></trkpt>
<trkpt lat="47.38132300" lon="7.31573297"><ele>818.218994</ele><time>2008-07-27T08:24:39Z</time></trkpt>
<trkpt lat="47.38127698" lon="7.31567304"><ele>818.700012</ele><time>2008-07-27T08:24:44Z</time></trkpt>
<trkpt lat="47.38124597" lon="7.31558000"><ele>819.18103</ele><time>2008-07-27T08:24:50Z</time></trkpt>
<trkpt lat="47.38104698" lon="7.31511899"><ele>823.026001</ele><time>2008-07-27T08:25:16Z</time></trkpt>
<trkpt lat="47.38086099" lon="7.31470400"><ele>827.35199</ele><time>2008-07-27T08:25:42Z</time></trkpt>
<trkpt lat="47.38083802" lon="7.31462899"><ele>827.83197</ele><time>2008-07-27T08:25:46Z</time></trkpt>
<trkpt lat="47.38079402" lon="7.31443402"><ele>829.273987</ele><time>2008-07-27T08:25:57Z</time></trkpt>
<trkpt lat="47.38085202" lon="7.31420101"><ele>832.15802</ele><time>2008-07-27T08:26:11Z</time></trkpt>
<trkpt lat="47.38094699" lon="7.31411400"><ele>833.119995</ele><time>2008-07-27T08:26:19Z</time></trkpt>
<trkpt lat="47.38124999" lon="7.31385098"><ele>836.965027</ele><time>2008-07-27T08:26:45Z</time></trkpt>
<trkpt lat="47.38130397" lon="7.31384997"><ele>837.445984</ele><time>2008-07-27T08:26:49Z</time></trkpt>
<trkpt lat="47.38128897" lon="7.31384402"><ele>837.445984</ele><time>2008-07-27T08:27:00Z</time></trkpt>
<trkpt lat="47.38132199" lon="7.31385802"><ele>837.445984</ele><time>2008-07-27T08:27:04Z</time></trkpt>
<trkpt lat="47.38149198" lon="7.31335804"><ele>841.770996</ele><time>2008-07-27T08:27:34Z</time></trkpt>
<trkpt lat="47.38157102" lon="7.31285504"><ele>844.656006</ele><time>2008-07-27T08:27:58Z</time></trkpt>
<trkpt lat="47.38158200" lon="7.31274901"><ele>844.656006</ele><time>2008-07-27T08:28:02Z</time></trkpt>
<trkpt lat="47.38157596" lon="7.31263703"><ele>844.656006</ele><time>2008-07-27T08:28:06Z</time></trkpt>
<trkpt lat="47.38166800" lon="7.31204501"><ele>845.135986</ele><time>2008-07-27T08:28:21Z</time></trkpt>
<trkpt lat="47.38173597" lon="7.31178702"><ele>845.617004</ele><time>2008-07-27T08:28:28Z</time></trkpt>
<trkpt lat="47.38177998" lon="7.31119802"><ele>847.059021</ele><time>2008-07-27T08:28:45Z</time></trkpt>
<trkpt lat="47.38180102" lon="7.31082402"><ele>848.500977</ele><time>2008-07-27T08:28:57Z</time></trkpt>
<trkpt lat="47.38179800" lon="7.31067700"><ele>849.461975</ele><time>2008-07-27T08:29:04Z</time></trkpt>
<trkpt lat="47.38180001" lon="7.31032496"><ele>851.38501</ele><time>2008-07-27T08:29:18Z</time></trkpt>
<trkpt lat="47.38182097" lon="7.31002900"><ele>852.827026</ele><time>2008-07-27T08:29:30Z</time></trkpt>
<trkpt lat="47.38183304" lon="7.30979799"><ele>854.749023</ele><time>2008-07-27T08:29:40Z</time></trkpt>
<trkpt lat="47.38180798" lon="7.30935400"><ele>856.671997</ele><time>2008-07-27T08:29:58Z</time></trkpt>
<trkpt lat="47.38181996" lon="7.30927597"><ele>857.153015</ele><time>2008-07-27T08:30:01Z</time></trkpt>
<trkpt lat="47.38181200" lon="7.30915200"><ele>858.593994</ele><time>2008-07-27T08:30:06Z</time></trkpt>
<trkpt lat="47.38174100" lon="7.30861003"><ele>860.517029</ele><time>2008-07-27T08:30:29Z</time></trkpt>
<trkpt lat="47.38174000" lon="7.30858899"><ele>860.997986</ele><time>2008-07-27T08:30:30Z</time></trkpt>
<trkpt lat="47.38169096" lon="7.30816101"><ele>864.362976</ele><time>2008-07-27T08:30:50Z</time></trkpt>
<trkpt lat="47.38167998" lon="7.30802103"><ele>864.843018</ele><time>2008-07-27T08:30:56Z</time></trkpt>
<trkpt lat="47.38167504" lon="7.30779799"><ele>866.765991</ele><time>2008-07-27T08:31:08Z</time></trkpt>
<trkpt lat="47.38166104" lon="7.30759397"><ele>867.72699</ele><time>2008-07-27T08:31:17Z</time></trkpt>
<trkpt lat="47.38157898" lon="7.30703800"><ele>870.611023</ele><time>2008-07-27T08:31:41Z</time></trkpt>
<trkpt lat="47.38152601" lon="7.30673801"><ele>873.013977</ele><time>2008-07-27T08:31:55Z</time></trkpt>
<trkpt lat="47.38149399" lon="7.30617600"><ele>877.341003</ele><time>2008-07-27T08:32:21Z</time></trkpt>
<trkpt lat="47.38149198" lon="7.30563696"><ele>881.185974</ele><time>2008-07-27T08:32:46Z</time></trkpt>
<trkpt lat="47.38151000" lon="7.30510304"><ele>884.549988</ele><time>2008-07-27T08:33:10Z</time></trkpt>
<trkpt lat="47.38156398" lon="7.30474002"><ele>885.992004</ele><time>2008-07-27T08:33:35Z</time></trkpt>
<trkpt lat="47.38154897" lon="7.30470004"><ele>885.992004</ele><time>2008-07-27T08:33:54Z</time></trkpt>
<trkpt lat="47.38154504" lon="7.30469098"><ele>885.992004</ele><time>2008-07-27T08:33:57Z</time></trkpt>
<trkpt lat="47.38151000" lon="7.30454698"><ele>886.473022</ele><time>2008-07-27T08:34:04Z</time></trkpt>
<trkpt lat="47.38147798" lon="7.30434598"><ele>886.473022</ele><time>2008-07-27T08:34:12Z</time></trkpt>
<trkpt lat="47.38144001" lon="7.30410299"><ele>886.953003</ele><time>2008-07-27T08:34:20Z</time></trkpt>
<trkpt lat="47.38138997" lon="7.30373897"><ele>886.953003</ele><time>2008-07-27T08:34:31Z</time></trkpt>
<trkpt lat="47.38131403" lon="7.30320697"><ele>886.953003</ele><time>2008-07-27T08:34:47Z</time></trkpt>
<trkpt lat="47.38124002" lon="7.30283297"><ele>888.395996</ele><time>2008-07-27T08:52:13Z</time></trkpt>
<trkpt lat="47.38111697" lon="7.30248000"><ele>887.914978</ele><time>2008-07-27T08:52:20Z</time></trkpt>
<trkpt lat="47.38095302" lon="7.30198497"><ele>887.434021</ele><time>2008-07-27T08:52:30Z</time></trkpt>
<trkpt lat="47.38081003" lon="7.30148097"><ele>887.434021</ele><time>2008-07-27T08:52:40Z</time></trkpt>
<trkpt lat="47.38072797" lon="7.30091703"><ele>886.953003</ele><time>2008-07-27T08:52:51Z</time></trkpt>
<trkpt lat="47.38067298" lon="7.30037103"><ele>886.953003</ele><time>2008-07-27T08:53:01Z</time></trkpt>
<trkpt lat="47.38058598" lon="7.29981699"><ele>886.953003</ele><time>2008-07-27T08:53:11Z</time></trkpt>
<trkpt lat="47.38048003" lon="7.29928801"><ele>885.992004</ele><time>2008-07-27T08:53:19Z</time></trkpt>
<trkpt lat="47.38038699" lon="7.29882097"><ele>885.031006</ele><time>2008-07-27T08:53:26Z</time></trkpt>
<trkpt lat="47.38026202" lon="7.29828201"><ele>884.549988</ele><time>2008-07-27T08:53:34Z</time></trkpt>
<trkpt lat="47.38024400" lon="7.29821102"><ele>884.070007</ele><time>2008-07-27T08:53:35Z</time></trkpt>
<trkpt lat="47.38015599" lon="7.29760400"><ele>883.588989</ele><time>2008-07-27T08:53:44Z</time></trkpt>
<trkpt lat="47.38012497" lon="7.29721399"><ele>883.107971</ele><time>2008-07-27T08:53:50Z</time></trkpt>
<trkpt lat="47.38003604" lon="7.29666498"><ele>882.146973</ele><time>2008-07-27T08:53:58Z</time></trkpt>
<trkpt lat="47.37997896" lon="7.29627002"><ele>882.146973</ele><time>2008-07-27T08:54:04Z</time></trkpt>
<trkpt lat="47.37992900" lon="7.29594598"><ele>882.146973</ele><time>2008-07-27T08:54:09Z</time></trkpt>
<trkpt lat="47.37985298" lon="7.29549796"><ele>882.146973</ele><time>2008-07-27T08:54:16Z</time></trkpt>
<trkpt lat="47.37975198" lon="7.29487502"><ele>881.666016</ele><time>2008-07-27T08:54:26Z</time></trkpt>
<trkpt lat="47.37968501" lon="7.29443296"><ele>881.666016</ele><time>2008-07-27T08:54:33Z</time></trkpt>
<trkpt lat="47.37959800" lon="7.29394304"><ele>881.185974</ele><time>2008-07-27T08:54:41Z</time></trkpt>
<trkpt lat="47.37950002" lon="7.29335798"><ele>880.705017</ele><time>2008-07-27T08:54:50Z</time></trkpt>
<trkpt lat="47.37942198" lon="7.29283897"><ele>880.705017</ele><time>2008-07-27T08:54:58Z</time></trkpt>
<trkpt lat="47.37935501" lon="7.29241099"><ele>880.705017</ele><time>2008-07-27T08:55:05Z</time></trkpt>
<trkpt lat="47.37926298" lon="7.29180599"><ele>880.223999</ele><time>2008-07-27T08:55:15Z</time></trkpt>
<trkpt lat="47.37921604" lon="7.29157498"><ele>880.223999</ele><time>2008-07-27T08:55:19Z</time></trkpt>
<trkpt lat="47.37912803" lon="7.29097500"><ele>880.223999</ele><time>2008-07-27T08:55:29Z</time></trkpt>
<trkpt lat="47.37917698" lon="7.29042197"><ele>879.744019</ele><time>2008-07-27T08:55:38Z</time></trkpt>
<trkpt lat="47.37922098" lon="7.28989600"><ele>880.223999</ele><time>2008-07-27T08:55:47Z</time></trkpt>
<trkpt lat="47.37924797" lon="7.28932997"><ele>880.223999</ele><time>2008-07-27T08:55:57Z</time></trkpt>
<trkpt lat="47.37928201" lon="7.28875397"><ele>880.705017</ele><time>2008-07-27T08:56:07Z</time></trkpt>
<trkpt lat="47.37932802" lon="7.28819800"><ele>879.744019</ele><time>2008-07-27T08:56:16Z</time></trkpt>
<trkpt lat="47.37931604" lon="7.28764898"><ele>878.781982</ele><time>2008-07-27T08:56:24Z</time></trkpt>
<trkpt lat="47.37931998" lon="7.28707499"><ele>877.820984</ele><time>2008-07-27T08:56:32Z</time></trkpt>
<trkpt lat="47.37937002" lon="7.28648700"><ele>876.379028</ele><time>2008-07-27T08:56:40Z</time></trkpt>
<trkpt lat="47.37940203" lon="7.28595802"><ele>875.416992</ele><time>2008-07-27T08:56:47Z</time></trkpt>
<trkpt lat="47.37941100" lon="7.28565099"><ele>874.937012</ele><time>2008-07-27T08:56:51Z</time></trkpt>
<trkpt lat="47.37943204" lon="7.28534597"><ele>873.494995</ele><time>2008-07-27T08:56:55Z</time></trkpt>
<trkpt lat="47.37943900" lon="7.28471699"><ele>872.052979</ele><time>2008-07-27T08:57:03Z</time></trkpt>
<trkpt lat="47.37944302" lon="7.28412498"><ele>872.052979</ele><time>2008-07-27T08:57:11Z</time></trkpt>
<trkpt lat="47.37944797" lon="7.28352400"><ele>870.611023</ele><time>2008-07-27T08:57:19Z</time></trkpt>
<trkpt lat="47.37945601" lon="7.28316198"><ele>870.611023</ele><time>2008-07-27T08:57:24Z</time></trkpt>
<trkpt lat="47.37948200" lon="7.28250601"><ele>869.650024</ele><time>2008-07-27T08:57:33Z</time></trkpt>
<trkpt lat="47.37951301" lon="7.28193797"><ele>869.650024</ele><time>2008-07-27T08:57:41Z</time></trkpt>
<trkpt lat="47.37952902" lon="7.28173203"><ele>869.650024</ele><time>2008-07-27T08:57:44Z</time></trkpt>
<trkpt lat="47.37954897" lon="7.28152500"><ele>869.650024</ele><time>2008-07-27T08:57:47Z</time></trkpt>
<trkpt lat="47.37959800" lon="7.28093097"><ele>869.650024</ele><time>2008-07-27T08:57:56Z</time></trkpt>
<trkpt lat="47.37964704" lon="7.28045002"><ele>870.130005</ele><time>2008-07-27T08:58:04Z</time></trkpt>
<trkpt lat="47.37967503" lon="7.28012899"><ele>870.130005</ele><time>2008-07-27T08:58:09Z</time></trkpt>
<trkpt lat="47.37971996" lon="7.27961099"><ele>870.130005</ele><time>2008-07-27T08:58:17Z</time></trkpt>
<trkpt lat="47.37973002" lon="7.27942902"><ele>870.611023</ele><time>2008-07-27T08:58:20Z</time></trkpt>
<trkpt lat="47.37978199" lon="7.27880700"><ele>871.09198</ele><time>2008-07-27T08:58:31Z</time></trkpt>
<trkpt lat="47.37980403" lon="7.27830802"><ele>872.052979</ele><time>2008-07-27T08:58:41Z</time></trkpt>
<trkpt lat="47.37981400" lon="7.27775096"><ele>872.533997</ele><time>2008-07-27T08:58:52Z</time></trkpt>
<trkpt lat="47.37983999" lon="7.27719599"><ele>873.494995</ele><time>2008-07-27T08:59:04Z</time></trkpt>
<trkpt lat="47.37986002" lon="7.27664597"><ele>874.455994</ele><time>2008-07-27T08:59:16Z</time></trkpt>
<trkpt lat="47.37987603" lon="7.27607097"><ele>874.937012</ele><time>2008-07-27T08:59:29Z</time></trkpt>
<trkpt lat="47.37989497" lon="7.27550201"><ele>875.416992</ele><time>2008-07-27T08:59:41Z</time></trkpt>
<trkpt lat="47.37992297" lon="7.27494403"><ele>875.89801</ele><time>2008-07-27T08:59:53Z</time></trkpt>
<trkpt lat="47.37994703" lon="7.27437498"><ele>877.341003</ele><time>2008-07-27T09:00:06Z</time></trkpt>
<trkpt lat="47.38000100" lon="7.27382697"><ele>877.820984</ele><time>2008-07-27T09:00:19Z</time></trkpt>
<trkpt lat="47.38006898" lon="7.27327804"><ele>878.781982</ele><time>2008-07-27T09:00:32Z</time></trkpt>
<trkpt lat="47.38015297" lon="7.27274696"><ele>878.781982</ele><time>2008-07-27T09:00:44Z</time></trkpt>
<trkpt lat="47.38023201" lon="7.27225402"><ele>878.781982</ele><time>2008-07-27T09:00:56Z</time></trkpt>
<trkpt lat="47.38027199" lon="7.27203299"><ele>878.302002</ele><time>2008-07-27T09:01:05Z</time></trkpt>
<trkpt lat="47.38028297" lon="7.27200600"><ele>878.302002</ele><time>2008-07-27T09:01:07Z</time></trkpt>
<trkpt lat="47.38030099" lon="7.27197600"><ele>878.302002</ele><time>2008-07-27T09:01:10Z</time></trkpt>
<trkpt lat="47.38037702" lon="7.27194004"><ele>877.820984</ele><time>2008-07-27T09:01:17Z</time></trkpt>
<trkpt lat="47.38026897" lon="7.27192202"><ele>878.781982</ele><time>2008-07-27T09:01:30Z</time></trkpt>
<trkpt lat="47.38027803" lon="7.27188597"><ele>878.781982</ele><time>2008-07-27T09:01:32Z</time></trkpt>
<trkpt lat="47.38033502" lon="7.27181498"><ele>878.302002</ele><time>2008-07-27T09:01:36Z</time></trkpt>
<trkpt lat="47.38060098" lon="7.27144903"><ele>877.820984</ele><time>2008-07-27T09:01:48Z</time></trkpt>
<trkpt lat="47.38087499" lon="7.27106304"><ele>876.859985</ele><time>2008-07-27T09:01:59Z</time></trkpt>
<trkpt lat="47.38099602" lon="7.27089599"><ele>875.89801</ele><time>2008-07-27T09:02:03Z</time></trkpt>
<trkpt lat="47.38125402" lon="7.27052500"><ele>874.455994</ele><time>2008-07-27T09:02:11Z</time></trkpt>
<trkpt lat="47.38148100" lon="7.27000499"><ele>872.533997</ele><time>2008-07-27T09:02:24Z</time></trkpt>
<trkpt lat="47.38173103" lon="7.26982797"><ele>869.169006</ele><time>2008-07-27T09:02:31Z</time></trkpt>
<trkpt lat="47.38187402" lon="7.26956603"><ele>867.72699</ele><time>2008-07-27T09:02:36Z</time></trkpt>
<trkpt lat="47.38200000" lon="7.26893898"><ele>866.765991</ele><time>2008-07-27T09:02:46Z</time></trkpt>
<trkpt lat="47.38210704" lon="7.26838402"><ele>866.284973</ele><time>2008-07-27T09:02:56Z</time></trkpt>
<trkpt lat="47.38214401" lon="7.26807799"><ele>866.284973</ele><time>2008-07-27T09:03:01Z</time></trkpt>
<trkpt lat="47.38218801" lon="7.26768999"><ele>866.765991</ele><time>2008-07-27T09:03:09Z</time></trkpt>
<trkpt lat="47.38221701" lon="7.26763501"><ele>865.804993</ele><time>2008-07-27T09:03:19Z</time></trkpt>
<trkpt lat="47.38223403" lon="7.26761598"><ele>864.843018</ele><time>2008-07-27T09:03:30Z</time></trkpt>
<trkpt lat="47.38239798" lon="7.26723201"><ele>861.479004</ele><time>2008-07-27T09:03:40Z</time></trkpt>
<trkpt lat="47.38247903" lon="7.26703604"><ele>859.55603</ele><time>2008-07-27T09:03:45Z</time></trkpt>
<trkpt lat="47.38251499" lon="7.26655902"><ele>860.036987</ele><time>2008-07-27T09:04:03Z</time></trkpt>
<trkpt lat="47.38252304" lon="7.26599702"><ele>862.440002</ele><time>2008-07-27T09:04:31Z</time></trkpt>
<trkpt lat="47.38252404" lon="7.26591697"><ele>862.921021</ele><time>2008-07-27T09:04:35Z</time></trkpt>
<trkpt lat="47.38247400" lon="7.26537801"><ele>865.323975</ele><time>2008-07-27T09:05:01Z</time></trkpt>
<trkpt lat="47.38243301" lon="7.26504802"><ele>866.765991</ele><time>2008-07-27T09:05:14Z</time></trkpt>
<trkpt lat="47.38248096" lon="7.26457603"><ele>869.169006</ele><time>2008-07-27T09:05:32Z</time></trkpt>
<trkpt lat="47.38257400" lon="7.26403800"><ele>871.572021</ele><time>2008-07-27T09:05:52Z</time></trkpt>
<trkpt lat="47.38259403" lon="7.26372804"><ele>873.013977</ele><time>2008-07-27T09:06:03Z</time></trkpt>
<trkpt lat="47.38259202" lon="7.26318900"><ele>875.416992</ele><time>2008-07-27T09:06:22Z</time></trkpt>
<trkpt lat="47.38259596" lon="7.26264099"><ele>877.341003</ele><time>2008-07-27T09:06:41Z</time></trkpt>
<trkpt lat="47.38261197" lon="7.26210899"><ele>878.781982</ele><time>2008-07-27T09:06:58Z</time></trkpt>
<trkpt lat="47.38261599" lon="7.26155997"><ele>879.744019</ele><time>2008-07-27T09:07:15Z</time></trkpt>
<trkpt lat="47.38261499" lon="7.26098799"><ele>880.223999</ele><time>2008-07-27T09:07:29Z</time></trkpt>
<trkpt lat="47.38262303" lon="7.26045398"><ele>881.185974</ele><time>2008-07-27T09:07:41Z</time></trkpt>
<trkpt lat="47.38267701" lon="7.25989901"><ele>883.107971</ele><time>2008-07-27T09:07:54Z</time></trkpt>
<trkpt lat="47.38277902" lon="7.25935897"><ele>884.070007</ele><time>2008-07-27T09:08:06Z</time></trkpt>
<trkpt lat="47.38288899" lon="7.25885396"><ele>885.031006</ele><time>2008-07-27T09:08:16Z</time></trkpt>
<trkpt lat="47.38304498" lon="7.25832699"><ele>886.473022</ele><time>2008-07-27T09:08:28Z</time></trkpt>
<trkpt lat="47.38324899" lon="7.25784796"><ele>887.914978</ele><time>2008-07-27T09:08:40Z</time></trkpt>
<trkpt lat="47.38345502" lon="7.25739702"><ele>888.395996</ele><time>2008-07-27T09:08:52Z</time></trkpt>
<trkpt lat="47.38361302" lon="7.25687298"><ele>889.356995</ele><time>2008-07-27T09:09:04Z</time></trkpt>
<trkpt lat="47.38370203" lon="7.25632497"><ele>890.799011</ele><time>2008-07-27T09:09:15Z</time></trkpt>
<trkpt lat="47.38378200" lon="7.25580001"><ele>891.76001</ele><time>2008-07-27T09:09:27Z</time></trkpt>
<trkpt lat="47.38390999" lon="7.25526097"><ele>893.682983</ele><time>2008-07-27T09:09:40Z</time></trkpt>
<trkpt lat="47.38402700" lon="7.25474901"><ele>894.164001</ele><time>2008-07-27T09:09:52Z</time></trkpt>
<trkpt lat="47.38412800" lon="7.25422002"><ele>895.125</ele><time>2008-07-27T09:10:04Z</time></trkpt>
<trkpt lat="47.38423403" lon="7.25366900"><ele>896.085999</ele><time>2008-07-27T09:10:16Z</time></trkpt>
<trkpt lat="47.38433604" lon="7.25314496"><ele>897.046997</ele><time>2008-07-27T09:10:27Z</time></trkpt>
<trkpt lat="47.38443000" lon="7.25258698"><ele>898.008972</ele><time>2008-07-27T09:10:38Z</time></trkpt>
<trkpt lat="47.38452598" lon="7.25207501"><ele>898.489014</ele><time>2008-07-27T09:10:48Z</time></trkpt>
<trkpt lat="47.38463704" lon="7.25155902"><ele>898.969971</ele><time>2008-07-27T09:10:59Z</time></trkpt>
<trkpt lat="47.38473804" lon="7.25102199"><ele>898.969971</ele><time>2008-07-27T09:11:09Z</time></trkpt>
<trkpt lat="47.38482697" lon="7.25046803"><ele>899.450989</ele><time>2008-07-27T09:11:19Z</time></trkpt>
<trkpt lat="47.38491900" lon="7.24991499"><ele>899.450989</ele><time>2008-07-27T09:11:29Z</time></trkpt>
<trkpt lat="47.38498698" lon="7.24938501"><ele>900.411987</ele><time>2008-07-27T09:11:39Z</time></trkpt>
<trkpt lat="47.38498103" lon="7.24882501"><ele>900.893005</ele><time>2008-07-27T09:11:50Z</time></trkpt>
<trkpt lat="47.38486997" lon="7.24832000"><ele>901.372986</ele><time>2008-07-27T09:12:00Z</time></trkpt>
<trkpt lat="47.38473200" lon="7.24781600"><ele>902.333984</ele><time>2008-07-27T09:12:11Z</time></trkpt>
<trkpt lat="47.38475002" lon="7.24727998"><ele>902.815002</ele><time>2008-07-27T09:12:23Z</time></trkpt>
<trkpt lat="47.38495999" lon="7.24689902"><ele>905.698975</ele><time>2008-07-27T09:12:38Z</time></trkpt>
<trkpt lat="47.38499301" lon="7.24670900"><ele>905.698975</ele><time>2008-07-27T09:12:44Z</time></trkpt>
<trkpt lat="47.38507197" lon="7.24615898"><ele>907.140991</ele><time>2008-07-27T09:13:00Z</time></trkpt>
<trkpt lat="47.38515696" lon="7.24562204"><ele>908.583008</ele><time>2008-07-27T09:13:15Z</time></trkpt>
<trkpt lat="47.38526300" lon="7.24509699"><ele>909.544983</ele><time>2008-07-27T09:13:29Z</time></trkpt>
<trkpt lat="47.38538504" lon="7.24458704"><ele>910.505981</ele><time>2008-07-27T09:13:43Z</time></trkpt>
<trkpt lat="47.38550498" lon="7.24408404"><ele>911.46698</ele><time>2008-07-27T09:13:57Z</time></trkpt>
<trkpt lat="47.38562602" lon="7.24358398"><ele>913.869995</ele><time>2008-07-27T09:14:12Z</time></trkpt>
<trkpt lat="47.38570799" lon="7.24316999"><ele>915.312012</ele><time>2008-07-27T09:14:25Z</time></trkpt>
<trkpt lat="47.38574596" lon="7.24263003"><ele>916.754028</ele><time>2008-07-27T09:14:42Z</time></trkpt>
<trkpt lat="47.38572299" lon="7.24209904"><ele>919.15802</ele><time>2008-07-27T09:14:59Z</time></trkpt>
<trkpt lat="47.38569399" lon="7.24158900"><ele>921.080017</ele><time>2008-07-27T09:15:18Z</time></trkpt>
<trkpt lat="47.38561998" lon="7.24104602"><ele>923.002991</ele><time>2008-07-27T09:15:39Z</time></trkpt>
<trkpt lat="47.38545503" lon="7.24056498"><ele>925.887024</ele><time>2008-07-27T09:16:00Z</time></trkpt>
<trkpt lat="47.38538403" lon="7.24024597"><ele>926.848022</ele><time>2008-07-27T09:16:14Z</time></trkpt>
<trkpt lat="47.38532402" lon="7.23991798"><ele>927.328979</ele><time>2008-07-27T09:16:26Z</time></trkpt>
<trkpt lat="47.38524104" lon="7.23937098"><ele>927.328979</ele><time>2008-07-27T09:16:40Z</time></trkpt>
<trkpt lat="47.38515504" lon="7.23907703"><ele>927.328979</ele><time>2008-07-27T09:16:47Z</time></trkpt>
<trkpt lat="47.38494398" lon="7.23857202"><ele>926.848022</ele><time>2008-07-27T09:16:56Z</time></trkpt>
<trkpt lat="47.38488799" lon="7.23840698"><ele>926.848022</ele><time>2008-07-27T09:16:59Z</time></trkpt>
<trkpt lat="47.38473997" lon="7.23788101"><ele>926.367981</ele><time>2008-07-27T09:17:09Z</time></trkpt>
<trkpt lat="47.38472496" lon="7.23781404"><ele>926.367981</ele><time>2008-07-27T09:17:10Z</time></trkpt>
<trkpt lat="47.38464902" lon="7.23729101"><ele>925.406006</ele><time>2008-07-27T09:17:17Z</time></trkpt>
<trkpt lat="47.38463896" lon="7.23714600"><ele>925.406006</ele><time>2008-07-27T09:17:19Z</time></trkpt>
<trkpt lat="47.38463201" lon="7.23694199"><ele>925.406006</ele><time>2008-07-27T09:17:22Z</time></trkpt>
<trkpt lat="47.38462304" lon="7.23642197"><ele>926.367981</ele><time>2008-07-27T09:17:31Z</time></trkpt>
<trkpt lat="47.38460099" lon="7.23621301"><ele>925.887024</ele><time>2008-07-27T09:17:35Z</time></trkpt>
<trkpt lat="47.38458096" lon="7.23607496"><ele>924.926025</ele><time>2008-07-27T09:17:37Z</time></trkpt>
<trkpt lat="47.38455196" lon="7.23582703"><ele>924.445007</ele><time>2008-07-27T09:17:40Z</time></trkpt>
<trkpt lat="47.38447501" lon="7.23521104"><ele>923.002991</ele><time>2008-07-27T09:17:47Z</time></trkpt>
<trkpt lat="47.38436999" lon="7.23467804"><ele>921.560974</ele><time>2008-07-27T09:17:53Z</time></trkpt>
<trkpt lat="47.38426496" lon="7.23410698"><ele>921.080017</ele><time>2008-07-27T09:18:00Z</time></trkpt>
<trkpt lat="47.38424904" lon="7.23402400"><ele>920.599976</ele><time>2008-07-27T09:18:01Z</time></trkpt>
<trkpt lat="47.38419397" lon="7.23369098"><ele>920.119019</ele><time>2008-07-27T09:18:05Z</time></trkpt>
<trkpt lat="47.38415902" lon="7.23352402"><ele>919.638</ele><time>2008-07-27T09:18:07Z</time></trkpt>
<trkpt lat="47.38409699" lon="7.23291499"><ele>918.677002</ele><time>2008-07-27T09:18:14Z</time></trkpt>
<trkpt lat="47.38409498" lon="7.23282899"><ele>918.677002</ele><time>2008-07-27T09:18:15Z</time></trkpt>
<trkpt lat="47.38407796" lon="7.23265900"><ele>918.195984</ele><time>2008-07-27T09:18:17Z</time></trkpt>
<trkpt lat="47.38405500" lon="7.23199398"><ele>917.234985</ele><time>2008-07-27T09:18:25Z</time></trkpt>
<trkpt lat="47.38403404" lon="7.23180103"><ele>916.273987</ele><time>2008-07-27T09:18:27Z</time></trkpt>
<trkpt lat="47.38402298" lon="7.23148998"><ele>915.79303</ele><time>2008-07-27T09:18:30Z</time></trkpt>
<trkpt lat="47.38400001" lon="7.23084801"><ele>912.908997</ele><time>2008-07-27T09:18:36Z</time></trkpt>
<trkpt lat="47.38400504" lon="7.23029103"><ele>910.025024</ele><time>2008-07-27T09:18:41Z</time></trkpt>
<trkpt lat="47.38401703" lon="7.22975903"><ele>908.103027</ele><time>2008-07-27T09:18:46Z</time></trkpt>
<trkpt lat="47.38401703" lon="7.22945896"><ele>905.698975</ele><time>2008-07-27T09:18:49Z</time></trkpt>
<trkpt lat="47.38399599" lon="7.22897599"><ele>901.854004</ele><time>2008-07-27T09:18:54Z</time></trkpt>
<trkpt lat="47.38399900" lon="7.22869503"><ele>898.969971</ele><time>2008-07-27T09:18:57Z</time></trkpt>
<trkpt lat="47.38403597" lon="7.22827401"><ele>896.085999</ele><time>2008-07-27T09:19:02Z</time></trkpt>
<trkpt lat="47.38409397" lon="7.22805801"><ele>893.682983</ele><time>2008-07-27T09:19:05Z</time></trkpt>
<trkpt lat="47.38412498" lon="7.22764998"><ele>889.836975</ele><time>2008-07-27T09:19:10Z</time></trkpt>
<trkpt lat="47.38418299" lon="7.22717397"><ele>885.992004</ele><time>2008-07-27T09:19:16Z</time></trkpt>
<trkpt lat="47.38421098" lon="7.22692000"><ele>883.588989</ele><time>2008-07-27T09:19:19Z</time></trkpt>
<trkpt lat="47.38421802" lon="7.22683903"><ele>882.627991</ele><time>2008-07-27T09:19:20Z</time></trkpt>
<trkpt lat="47.38426496" lon="7.22659000"><ele>880.705017</ele><time>2008-07-27T09:19:23Z</time></trkpt>
<trkpt lat="47.38428801" lon="7.22636797"><ele>879.263</ele><time>2008-07-27T09:19:26Z</time></trkpt>
<trkpt lat="47.38432397" lon="7.22613797"><ele>878.302002</ele><time>2008-07-27T09:19:29Z</time></trkpt>
<trkpt lat="47.38438600" lon="7.22541704"><ele>875.416992</ele><time>2008-07-27T09:19:36Z</time></trkpt>
<trkpt lat="47.38445800" lon="7.22483600"><ele>873.494995</ele><time>2008-07-27T09:19:41Z</time></trkpt>
<trkpt lat="47.38451198" lon="7.22422899"><ele>871.572021</ele><time>2008-07-27T09:19:46Z</time></trkpt>
<trkpt lat="47.38458599" lon="7.22362197"><ele>870.611023</ele><time>2008-07-27T09:19:51Z</time></trkpt>
<trkpt lat="47.38469998" lon="7.22308603"><ele>868.687988</ele><time>2008-07-27T09:19:57Z</time></trkpt>
<trkpt lat="47.38481498" lon="7.22252696"><ele>867.247009</ele><time>2008-07-27T09:20:04Z</time></trkpt>
<trkpt lat="47.38493199" lon="7.22194098"><ele>864.843018</ele><time>2008-07-27T09:20:10Z</time></trkpt>
<trkpt lat="47.38495999" lon="7.22170603"><ele>863.401001</ele><time>2008-07-27T09:20:12Z</time></trkpt>
<trkpt lat="47.38503400" lon="7.22112299"><ele>860.517029</ele><time>2008-07-27T09:20:17Z</time></trkpt>
<trkpt lat="47.38504800" lon="7.22087698"><ele>858.593994</ele><time>2008-07-27T09:20:20Z</time></trkpt>
<trkpt lat="47.38502696" lon="7.22054103"><ele>857.632996</ele><time>2008-07-27T09:20:24Z</time></trkpt>
<trkpt lat="47.38510399" lon="7.21992899"><ele>857.632996</ele><time>2008-07-27T09:20:34Z</time></trkpt>
<trkpt lat="47.38505102" lon="7.21961701"><ele>858.593994</ele><time>2008-07-27T09:20:43Z</time></trkpt>
<trkpt lat="47.38496603" lon="7.21908200"><ele>859.075012</ele><time>2008-07-27T09:20:59Z</time></trkpt>
<trkpt lat="47.38492596" lon="7.21906699"><ele>858.593994</ele><time>2008-07-27T09:21:14Z</time></trkpt>
<trkpt lat="47.38475899" lon="7.21858403"><ele>858.114014</ele><time>2008-07-27T09:22:10Z</time></trkpt>
<trkpt lat="47.38466403" lon="7.21804901"><ele>858.114014</ele><time>2008-07-27T09:22:19Z</time></trkpt>
<trkpt lat="47.38457501" lon="7.21753302"><ele>854.749023</ele><time>2008-07-27T09:22:25Z</time></trkpt>
<trkpt lat="47.38455498" lon="7.21743696"><ele>854.268982</ele><time>2008-07-27T09:22:26Z</time></trkpt>
<trkpt lat="47.38439798" lon="7.21680597"><ele>851.86499</ele><time>2008-07-27T09:22:32Z</time></trkpt>
<trkpt lat="47.38427896" lon="7.21635000"><ele>849.942993</ele><time>2008-07-27T09:22:36Z</time></trkpt>
<trkpt lat="47.38416899" lon="7.21575203"><ele>848.500977</ele><time>2008-07-27T09:22:41Z</time></trkpt>
<trkpt lat="47.38407897" lon="7.21514703"><ele>847.059021</ele><time>2008-07-27T09:22:46Z</time></trkpt>
<trkpt lat="47.38404502" lon="7.21451201"><ele>845.135986</ele><time>2008-07-27T09:22:51Z</time></trkpt>
<trkpt lat="47.38400999" lon="7.21386996"><ele>843.69397</ele><time>2008-07-27T09:22:56Z</time></trkpt>
<trkpt lat="47.38399196" lon="7.21321098"><ele>841.770996</ele><time>2008-07-27T09:23:01Z</time></trkpt>
<trkpt lat="47.38399599" lon="7.21266297"><ele>840.330017</ele><time>2008-07-27T09:23:05Z</time></trkpt>
<trkpt lat="47.38400303" lon="7.21211596"><ele>838.888</ele><time>2008-07-27T09:23:09Z</time></trkpt>
<trkpt lat="47.38399900" lon="7.21156896"><ele>837.445984</ele><time>2008-07-27T09:23:13Z</time></trkpt>
<trkpt lat="47.38405801" lon="7.21100100"><ele>835.52301</ele><time>2008-07-27T09:23:17Z</time></trkpt>
<trkpt lat="47.38406296" lon="7.21086304"><ele>835.52301</ele><time>2008-07-27T09:23:18Z</time></trkpt>
<trkpt lat="47.38407997" lon="7.21030598"><ele>834.080994</ele><time>2008-07-27T09:23:22Z</time></trkpt>
<trkpt lat="47.38411602" lon="7.20974799"><ele>833.119995</ele><time>2008-07-27T09:23:26Z</time></trkpt>
<trkpt lat="47.38433797" lon="7.20905799"><ele>830.236023</ele><time>2008-07-27T09:23:31Z</time></trkpt>
<trkpt lat="47.38444098" lon="7.20850403"><ele>827.83197</ele><time>2008-07-27T09:23:35Z</time></trkpt>
<trkpt lat="47.38449999" lon="7.20793901"><ele>824.947998</ele><time>2008-07-27T09:23:39Z</time></trkpt>
<trkpt lat="47.38464299" lon="7.20734096"><ele>822.064026</ele><time>2008-07-27T09:23:44Z</time></trkpt>
<trkpt lat="47.38474701" lon="7.20690996"><ele>820.142029</ele><time>2008-07-27T09:23:48Z</time></trkpt>
<trkpt lat="47.38486603" lon="7.20636003"><ele>817.739014</ele><time>2008-07-27T09:23:53Z</time></trkpt>
<trkpt lat="47.38490098" lon="7.20600598"><ele>816.296997</ele><time>2008-07-27T09:23:56Z</time></trkpt>
<trkpt lat="47.38496703" lon="7.20536702"><ele>814.374023</ele><time>2008-07-27T09:24:01Z</time></trkpt>
<trkpt lat="47.38505303" lon="7.20484198"><ele>812.932007</ele><time>2008-07-27T09:24:05Z</time></trkpt>
<trkpt lat="47.38514003" lon="7.20431400"><ele>811.008972</ele><time>2008-07-27T09:24:09Z</time></trkpt>
<trkpt lat="47.38524003" lon="7.20370900"><ele>808.125</ele><time>2008-07-27T09:24:14Z</time></trkpt>
<trkpt lat="47.38528797" lon="7.20341102"><ele>806.682983</ele><time>2008-07-27T09:24:17Z</time></trkpt>
<trkpt lat="47.38539300" lon="7.20282597"><ele>805.721985</ele><time>2008-07-27T09:24:23Z</time></trkpt>
<trkpt lat="47.38546601" lon="7.20255800"><ele>804.760986</ele><time>2008-07-27T09:24:26Z</time></trkpt>
<trkpt lat="47.38564303" lon="7.20227502"><ele>802.838013</ele><time>2008-07-27T09:24:30Z</time></trkpt>
<trkpt lat="47.38570103" lon="7.20222901"><ele>801.877014</ele><time>2008-07-27T09:24:31Z</time></trkpt>
<trkpt lat="47.38583900" lon="7.20213102"><ele>800.916016</ele><time>2008-07-27T09:24:34Z</time></trkpt>
<trkpt lat="47.38591603" lon="7.20191997"><ele>800.916016</ele><time>2008-07-27T09:24:40Z</time></trkpt>
<trkpt lat="47.38591100" lon="7.20164596"><ele>799.473999</ele><time>2008-07-27T09:24:51Z</time></trkpt>
<trkpt lat="47.38606003" lon="7.20112000"><ele>796.109009</ele><time>2008-07-27T09:25:05Z</time></trkpt>
<trkpt lat="47.38630101" lon="7.20066997"><ele>792.263977</ele><time>2008-07-27T09:25:16Z</time></trkpt>
<trkpt lat="47.38645499" lon="7.20023604"><ele>792.744019</ele><time>2008-07-27T09:25:29Z</time></trkpt>
<trkpt lat="47.38652204" lon="7.20004099"><ele>793.224976</ele><time>2008-07-27T09:25:36Z</time></trkpt>
<trkpt lat="47.38653202" lon="7.20001501"><ele>793.224976</ele><time>2008-07-27T09:25:37Z</time></trkpt>
<trkpt lat="47.38661399" lon="7.19978401"><ele>794.666992</ele><time>2008-07-27T09:25:45Z</time></trkpt>
<trkpt lat="47.38666998" lon="7.19963900"><ele>795.146973</ele><time>2008-07-27T09:25:50Z</time></trkpt>
<trkpt lat="47.38676604" lon="7.19940699"><ele>795.627991</ele><time>2008-07-27T09:25:58Z</time></trkpt>
<trkpt lat="47.38688699" lon="7.19889896"><ele>796.590027</ele><time>2008-07-27T09:26:12Z</time></trkpt>
<trkpt lat="47.38690702" lon="7.19831298"><ele>798.031982</ele><time>2008-07-27T09:26:26Z</time></trkpt>
<trkpt lat="47.38690702" lon="7.19815901"><ele>798.031982</ele><time>2008-07-27T09:26:30Z</time></trkpt>
<trkpt lat="47.38691700" lon="7.19758602"><ele>799.953979</ele><time>2008-07-27T09:26:47Z</time></trkpt>
<trkpt lat="47.38692203" lon="7.19725099"><ele>802.838013</ele><time>2008-07-27T09:27:03Z</time></trkpt>
<trkpt lat="47.38693401" lon="7.19670097"><ele>805.721985</ele><time>2008-07-27T09:27:27Z</time></trkpt>
<trkpt lat="47.38695304" lon="7.19615003"><ele>808.125</ele><time>2008-07-27T09:27:52Z</time></trkpt>
<trkpt lat="47.38705899" lon="7.19561803"><ele>810.528992</ele><time>2008-07-27T09:28:15Z</time></trkpt>
<trkpt lat="47.38725202" lon="7.19514403"><ele>811.48999</ele><time>2008-07-27T09:28:33Z</time></trkpt>
<trkpt lat="47.38742704" lon="7.19491202"><ele>812.450989</ele><time>2008-07-27T09:28:44Z</time></trkpt>
<trkpt lat="47.38759803" lon="7.19454397"><ele>813.413025</ele><time>2008-07-27T09:28:58Z</time></trkpt>
<trkpt lat="47.38762099" lon="7.19399999"><ele>814.374023</ele><time>2008-07-27T09:29:16Z</time></trkpt>
<trkpt lat="47.38751798" lon="7.19347101"><ele>814.85498</ele><time>2008-07-27T09:29:32Z</time></trkpt>
<trkpt lat="47.38733500" lon="7.19297103"><ele>814.374023</ele><time>2008-07-27T09:29:45Z</time></trkpt>
<trkpt lat="47.38712001" lon="7.19249996"><ele>813.893005</ele><time>2008-07-27T09:29:55Z</time></trkpt>
<trkpt lat="47.38695103" lon="7.19202002"><ele>813.893005</ele><time>2008-07-27T09:30:04Z</time></trkpt>
<trkpt lat="47.38681700" lon="7.19150302"><ele>814.85498</ele><time>2008-07-27T09:30:14Z</time></trkpt>
<trkpt lat="47.38652204" lon="7.19123396"><ele>816.776978</ele><time>2008-07-27T09:30:27Z</time></trkpt>
<trkpt lat="47.38637502" lon="7.19104503"><ele>817.739014</ele><time>2008-07-27T09:30:35Z</time></trkpt>
<trkpt lat="47.38611200" lon="7.19067598"><ele>818.700012</ele><time>2008-07-27T09:30:49Z</time></trkpt>
<trkpt lat="47.38587102" lon="7.19057003"><ele>818.700012</ele><time>2008-07-27T09:30:57Z</time></trkpt>
<trkpt lat="47.38550196" lon="7.19053097"><ele>820.142029</ele><time>2008-07-27T09:31:12Z</time></trkpt>
<trkpt lat="47.38520902" lon="7.19019603"><ele>821.583984</ele><time>2008-07-27T09:31:26Z</time></trkpt>
<trkpt lat="47.38495102" lon="7.18982002"><ele>823.507019</ele><time>2008-07-27T09:31:42Z</time></trkpt>
<trkpt lat="47.38470401" lon="7.18940302"><ele>825.429016</ele><time>2008-07-27T09:31:59Z</time></trkpt>
<trkpt lat="47.38461399" lon="7.18920202"><ele>824.468018</ele><time>2008-07-27T09:32:05Z</time></trkpt>
<trkpt lat="47.38451097" lon="7.18897202"><ele>823.507019</ele><time>2008-07-27T09:32:10Z</time></trkpt>
<trkpt lat="47.38441399" lon="7.18874001"><ele>822.544983</ele><time>2008-07-27T09:32:14Z</time></trkpt>
<trkpt lat="47.38430897" lon="7.18851303"><ele>820.622986</ele><time>2008-07-27T09:32:17Z</time></trkpt>
<trkpt lat="47.38419204" lon="7.18825000"><ele>818.218994</ele><time>2008-07-27T09:32:20Z</time></trkpt>
<trkpt lat="47.38410604" lon="7.18806501"><ele>817.257996</ele><time>2008-07-27T09:32:22Z</time></trkpt>
<trkpt lat="47.38389004" lon="7.18753603"><ele>813.413025</ele><time>2008-07-27T09:32:27Z</time></trkpt>
<trkpt lat="47.38384796" lon="7.18743302"><ele>812.932007</ele><time>2008-07-27T09:32:28Z</time></trkpt>
<trkpt lat="47.38369097" lon="7.18700797"><ele>810.528992</ele><time>2008-07-27T09:32:32Z</time></trkpt>
<trkpt lat="47.38352803" lon="7.18644002"><ele>808.606018</ele><time>2008-07-27T09:32:37Z</time></trkpt>
<trkpt lat="47.38348302" lon="7.18624002"><ele>808.125</ele><time>2008-07-27T09:32:39Z</time></trkpt>
<trkpt lat="47.38350003" lon="7.18593098"><ele>807.164001</ele><time>2008-07-27T09:32:43Z</time></trkpt>
<trkpt lat="47.38355502" lon="7.18577500"><ele>806.682983</ele><time>2008-07-27T09:32:45Z</time></trkpt>
<trkpt lat="47.38356600" lon="7.18542899"><ele>805.721985</ele><time>2008-07-27T09:32:49Z</time></trkpt>
<trkpt lat="47.38340297" lon="7.18490797"><ele>806.682983</ele><time>2008-07-27T09:32:58Z</time></trkpt>
<trkpt lat="47.38338402" lon="7.18480898"><ele>807.164001</ele><time>2008-07-27T09:33:01Z</time></trkpt>
<trkpt lat="47.38337698" lon="7.18474603"><ele>807.64502</ele><time>2008-07-27T09:33:03Z</time></trkpt>
<trkpt lat="47.38338503" lon="7.18445803"><ele>809.086975</ele><time>2008-07-27T09:33:12Z</time></trkpt>
<trkpt lat="47.38328202" lon="7.18395503"><ele>809.086975</ele><time>2008-07-27T09:33:29Z</time></trkpt>
<trkpt lat="47.38323701" lon="7.18376200"><ele>809.086975</ele><time>2008-07-27T09:33:36Z</time></trkpt>
<trkpt lat="47.38326500" lon="7.18365203"><ele>809.086975</ele><time>2008-07-27T09:33:58Z</time></trkpt>
<trkpt lat="47.38325603" lon="7.18368002"><ele>809.086975</ele><time>2008-07-27T09:34:11Z</time></trkpt>
<trkpt lat="47.38320197" lon="7.18355899"><ele>809.086975</ele><time>2008-07-27T09:34:39Z</time></trkpt>
<trkpt lat="47.38309602" lon="7.18303202"><ele>807.64502</ele><time>2008-07-27T09:34:50Z</time></trkpt>
<trkpt lat="47.38303098" lon="7.18272700"><ele>807.164001</ele><time>2008-07-27T09:34:55Z</time></trkpt>
<trkpt lat="47.38298899" lon="7.18253003"><ele>806.682983</ele><time>2008-07-27T09:34:58Z</time></trkpt>
<trkpt lat="47.38290600" lon="7.18213901"><ele>806.203003</ele><time>2008-07-27T09:35:04Z</time></trkpt>
<trkpt lat="47.38290600" lon="7.18162503"><ele>805.241028</ele><time>2008-07-27T09:35:11Z</time></trkpt>
<trkpt lat="47.38285596" lon="7.18127500"><ele>804.760986</ele><time>2008-07-27T09:35:16Z</time></trkpt>
<trkpt lat="47.38266603" lon="7.18076496"><ele>805.721985</ele><time>2008-07-27T09:35:29Z</time></trkpt>
<trkpt lat="47.38264499" lon="7.18068299"><ele>805.241028</ele><time>2008-07-27T09:35:31Z</time></trkpt>
<trkpt lat="47.38259596" lon="7.18031402"><ele>806.682983</ele><time>2008-07-27T09:35:39Z</time></trkpt>
<trkpt lat="47.38259504" lon="7.18011000"><ele>807.164001</ele><time>2008-07-27T09:35:44Z</time></trkpt>
<trkpt lat="47.38259001" lon="7.17978202"><ele>808.125</ele><time>2008-07-27T09:35:52Z</time></trkpt>
<trkpt lat="47.38269604" lon="7.17926502"><ele>808.125</ele><time>2008-07-27T09:36:04Z</time></trkpt>
<trkpt lat="47.38296602" lon="7.17884098"><ele>806.682983</ele><time>2008-07-27T09:36:12Z</time></trkpt>
<trkpt lat="47.38300500" lon="7.17852700"><ele>805.721985</ele><time>2008-07-27T09:36:16Z</time></trkpt>
<trkpt lat="47.38279704" lon="7.17827998"><ele>804.280029</ele><time>2008-07-27T09:36:24Z</time></trkpt>
<trkpt lat="47.38262404" lon="7.17819801"><ele>803.799988</ele><time>2008-07-27T09:36:29Z</time></trkpt>
<trkpt lat="47.38233201" lon="7.17807001"><ele>802.838013</ele><time>2008-07-27T09:36:36Z</time></trkpt>
<trkpt lat="47.38228600" lon="7.17808099"><ele>802.356995</ele><time>2008-07-27T09:36:37Z</time></trkpt>
<trkpt lat="47.38212900" lon="7.17818300"><ele>802.356995</ele><time>2008-07-27T09:36:40Z</time></trkpt>
<trkpt lat="47.38202599" lon="7.17823799"><ele>802.356995</ele><time>2008-07-27T09:36:42Z</time></trkpt>
<trkpt lat="47.38175198" lon="7.17805199"><ele>800.916016</ele><time>2008-07-27T09:36:48Z</time></trkpt>
<trkpt lat="47.38149701" lon="7.17754296"><ele>799.953979</ele><time>2008-07-27T09:36:56Z</time></trkpt>
<trkpt lat="47.38124404" lon="7.17723501"><ele>800.916016</ele><time>2008-07-27T09:37:04Z</time></trkpt>
<trkpt lat="47.38113298" lon="7.17708698"><ele>801.395996</ele><time>2008-07-27T09:37:08Z</time></trkpt>
<trkpt lat="47.38110800" lon="7.17705304"><ele>801.877014</ele><time>2008-07-27T09:37:09Z</time></trkpt>
<trkpt lat="47.38105402" lon="7.17698900"><ele>801.395996</ele><time>2008-07-27T09:37:11Z</time></trkpt>
<trkpt lat="47.38095202" lon="7.17687299"><ele>802.838013</ele><time>2008-07-27T09:37:15Z</time></trkpt>
<trkpt lat="47.38080097" lon="7.17665196"><ele>803.31897</ele><time>2008-07-27T09:37:22Z</time></trkpt>
<trkpt lat="47.38074498" lon="7.17649296"><ele>803.799988</ele><time>2008-07-27T09:37:26Z</time></trkpt>
<trkpt lat="47.38068597" lon="7.17595099"><ele>802.356995</ele><time>2008-07-27T09:37:36Z</time></trkpt>
<trkpt lat="47.38064800" lon="7.17536802"><ele>799.473999</ele><time>2008-07-27T09:37:42Z</time></trkpt>
<trkpt lat="47.38063602" lon="7.17525001"><ele>798.992981</ele><time>2008-07-27T09:37:43Z</time></trkpt>
<trkpt lat="47.38056997" lon="7.17479998"><ele>796.590027</ele><time>2008-07-27T09:37:47Z</time></trkpt>
<trkpt lat="47.38065496" lon="7.17437100"><ele>795.146973</ele><time>2008-07-27T09:37:52Z</time></trkpt>
<trkpt lat="47.38084003" lon="7.17404997"><ele>792.744019</ele><time>2008-07-27T09:37:57Z</time></trkpt>
<trkpt lat="47.38087901" lon="7.17387504"><ele>792.263977</ele><time>2008-07-27T09:38:00Z</time></trkpt>
<trkpt lat="47.38087297" lon="7.17375602"><ele>791.78302</ele><time>2008-07-27T09:38:02Z</time></trkpt>
<trkpt lat="47.38085797" lon="7.17363699"><ele>791.302002</ele><time>2008-07-27T09:38:04Z</time></trkpt>
<trkpt lat="47.38082604" lon="7.17332502"><ele>790.822021</ele><time>2008-07-27T09:38:10Z</time></trkpt>
<trkpt lat="47.38090097" lon="7.17287499"><ele>790.341003</ele><time>2008-07-27T09:38:21Z</time></trkpt>
<trkpt lat="47.38113902" lon="7.17283099"><ele>789.859985</ele><time>2008-07-27T09:38:27Z</time></trkpt>
<trkpt lat="47.38129400" lon="7.17272999"><ele>789.859985</ele><time>2008-07-27T09:38:31Z</time></trkpt>
<trkpt lat="47.38136902" lon="7.17256201"><ele>788.898987</ele><time>2008-07-27T09:38:34Z</time></trkpt>
<trkpt lat="47.38126500" lon="7.17227099"><ele>787.937988</ele><time>2008-07-27T09:38:39Z</time></trkpt>
<trkpt lat="47.38117397" lon="7.17213797"><ele>787.937988</ele><time>2008-07-27T09:38:41Z</time></trkpt>
<trkpt lat="47.38101203" lon="7.17185500"><ele>787.45697</ele><time>2008-07-27T09:38:45Z</time></trkpt>
<trkpt lat="47.38085403" lon="7.17159399"><ele>786.495972</ele><time>2008-07-27T09:38:49Z</time></trkpt>
<trkpt lat="47.38071699" lon="7.17145904"><ele>786.495972</ele><time>2008-07-27T09:38:52Z</time></trkpt>
<trkpt lat="47.38053904" lon="7.17136902"><ele>786.495972</ele><time>2008-07-27T09:38:56Z</time></trkpt>
<trkpt lat="47.38034600" lon="7.17113298"><ele>785.054016</ele><time>2008-07-27T09:39:01Z</time></trkpt>
<trkpt lat="47.38017501" lon="7.17053401"><ele>785.054016</ele><time>2008-07-27T09:39:09Z</time></trkpt>
<trkpt lat="47.38006203" lon="7.17013503"><ele>784.572998</ele><time>2008-07-27T09:39:14Z</time></trkpt>
<trkpt lat="47.37999899" lon="7.16989397"><ele>783.612</ele><time>2008-07-27T09:39:17Z</time></trkpt>
<trkpt lat="47.37993797" lon="7.16965802"><ele>783.612</ele><time>2008-07-27T09:39:20Z</time></trkpt>
<trkpt lat="47.38001098" lon="7.16904799"><ele>780.728027</ele><time>2008-07-27T09:39:27Z</time></trkpt>
<trkpt lat="47.38000100" lon="7.16895000"><ele>780.728027</ele><time>2008-07-27T09:39:28Z</time></trkpt>
<trkpt lat="47.37997301" lon="7.16885604"><ele>779.765991</ele><time>2008-07-27T09:39:29Z</time></trkpt>
<trkpt lat="47.37985801" lon="7.16856896"><ele>778.323975</ele><time>2008-07-27T09:39:32Z</time></trkpt>
<trkpt lat="47.37960496" lon="7.16808801"><ele>773.999023</ele><time>2008-07-27T09:39:37Z</time></trkpt>
<trkpt lat="47.37933900" lon="7.16759800"><ele>769.672974</ele><time>2008-07-27T09:39:42Z</time></trkpt>
<trkpt lat="47.37909702" lon="7.16710498"><ele>765.346985</ele><time>2008-07-27T09:39:47Z</time></trkpt>
<trkpt lat="47.37888797" lon="7.16660399"><ele>761.500977</ele><time>2008-07-27T09:39:52Z</time></trkpt>
<trkpt lat="47.37879996" lon="7.16640500"><ele>760.059021</ele><time>2008-07-27T09:39:54Z</time></trkpt>
<trkpt lat="47.37846200" lon="7.16583897"><ele>755.252991</ele><time>2008-07-27T09:40:00Z</time></trkpt>
<trkpt lat="47.37839897" lon="7.16573697"><ele>755.252991</ele><time>2008-07-27T09:40:01Z</time></trkpt>
<trkpt lat="47.37814601" lon="7.16533002"><ele>754.291992</ele><time>2008-07-27T09:40:05Z</time></trkpt>
<trkpt lat="47.37748400" lon="7.16397098"><ele>748.04303</ele><time>2008-07-27T09:40:30Z</time></trkpt>
<trkpt lat="47.37746598" lon="7.16379496"><ele>749.004028</ele><time>2008-07-27T09:40:38Z</time></trkpt>
<trkpt lat="47.37746498" lon="7.16353797"><ele>750.447021</ele><time>2008-07-27T09:40:48Z</time></trkpt>
<trkpt lat="47.37747403" lon="7.16337997"><ele>751.40802</ele><time>2008-07-27T09:40:54Z</time></trkpt>
<trkpt lat="47.37749004" lon="7.16306197"><ele>752.369019</ele><time>2008-07-27T09:41:04Z</time></trkpt>
<trkpt lat="47.37751300" lon="7.16249803"><ele>752.369019</ele><time>2008-07-27T09:41:19Z</time></trkpt>
<trkpt lat="47.37756799" lon="7.16195899"><ele>751.888</ele><time>2008-07-27T09:41:29Z</time></trkpt>
<trkpt lat="47.37774300" lon="7.16146798"><ele>751.40802</ele><time>2008-07-27T09:41:37Z</time></trkpt>
<trkpt lat="47.37783202" lon="7.16128299"><ele>751.40802</ele><time>2008-07-27T09:41:40Z</time></trkpt>
<trkpt lat="47.37785901" lon="7.16078502"><ele>750.927002</ele><time>2008-07-27T09:41:47Z</time></trkpt>
<trkpt lat="47.37769397" lon="7.16015797"><ele>750.447021</ele><time>2008-07-27T09:41:56Z</time></trkpt>
<trkpt lat="47.37753798" lon="7.15963704"><ele>751.888</ele><time>2008-07-27T09:42:05Z</time></trkpt>
<trkpt lat="47.37740899" lon="7.15931098"><ele>754.291992</ele><time>2008-07-27T09:42:16Z</time></trkpt>
<trkpt lat="47.37730002" lon="7.15894301"><ele>756.213989</ele><time>2008-07-27T09:42:30Z</time></trkpt>
<trkpt lat="47.37727102" lon="7.15870698"><ele>757.656006</ele><time>2008-07-27T09:42:40Z</time></trkpt>
<trkpt lat="47.37723900" lon="7.15848796"><ele>760.059021</ele><time>2008-07-27T09:42:50Z</time></trkpt>
<trkpt lat="47.37719902" lon="7.15828302"><ele>761.500977</ele><time>2008-07-27T09:42:59Z</time></trkpt>
<trkpt lat="47.37717002" lon="7.15817104"><ele>761.981995</ele><time>2008-07-27T09:43:04Z</time></trkpt>
<trkpt lat="47.37698704" lon="7.15771498"><ele>764.38501</ele><time>2008-07-27T09:43:26Z</time></trkpt>
<trkpt lat="47.37678898" lon="7.15725800"><ele>767.75</ele><time>2008-07-27T09:43:48Z</time></trkpt>
<trkpt lat="47.37662796" lon="7.15685600"><ele>769.672974</ele><time>2008-07-27T09:44:07Z</time></trkpt>
<trkpt lat="47.37657096" lon="7.15657496"><ele>769.192017</ele><time>2008-07-27T09:44:14Z</time></trkpt>
<trkpt lat="47.37650902" lon="7.15639399"><ele>768.710999</ele><time>2008-07-27T09:44:18Z</time></trkpt>
<trkpt lat="47.37637499" lon="7.15589602"><ele>770.153015</ele><time>2008-07-27T09:44:30Z</time></trkpt>
<trkpt lat="47.37654104" lon="7.15540904"><ele>771.594971</ele><time>2008-07-27T09:44:43Z</time></trkpt>
<trkpt lat="47.37668504" lon="7.15490797"><ele>773.036987</ele><time>2008-07-27T09:44:58Z</time></trkpt>
<trkpt lat="47.37681404" lon="7.15438301"><ele>774.479004</ele><time>2008-07-27T09:45:13Z</time></trkpt>
<trkpt lat="47.37692803" lon="7.15387104"><ele>776.882996</ele><time>2008-07-27T09:45:30Z</time></trkpt>
<trkpt lat="47.37701898" lon="7.15341498"><ele>778.804993</ele><time>2008-07-27T09:45:46Z</time></trkpt>
<trkpt lat="47.37721402" lon="7.15296596"><ele>780.728027</ele><time>2008-07-27T09:46:03Z</time></trkpt>
<trkpt lat="47.37740203" lon="7.15254502"><ele>782.169983</ele><time>2008-07-27T09:46:19Z</time></trkpt>
<trkpt lat="47.37738702" lon="7.15211797"><ele>785.054016</ele><time>2008-07-27T09:46:37Z</time></trkpt>
<trkpt lat="47.37726398" lon="7.15193499"><ele>787.45697</ele><time>2008-07-27T09:46:49Z</time></trkpt>
<trkpt lat="47.37715501" lon="7.15177498"><ele>789.380005</ele><time>2008-07-27T09:47:00Z</time></trkpt>
<trkpt lat="47.37697899" lon="7.15142503"><ele>793.224976</ele><time>2008-07-27T09:47:22Z</time></trkpt>
<trkpt lat="47.37678696" lon="7.15096101"><ele>797.070007</ele><time>2008-07-27T09:47:49Z</time></trkpt>
<trkpt lat="47.37657901" lon="7.15051501"><ele>799.473999</ele><time>2008-07-27T09:48:12Z</time></trkpt>
<trkpt lat="47.37651296" lon="7.15037696"><ele>798.992981</ele><time>2008-07-27T09:48:17Z</time></trkpt>
<trkpt lat="47.37644096" lon="7.15020999"><ele>798.512024</ele><time>2008-07-27T09:48:21Z</time></trkpt>
<trkpt lat="47.37639402" lon="7.15004898"><ele>798.031982</ele><time>2008-07-27T09:48:25Z</time></trkpt>
<trkpt lat="47.37636200" lon="7.14984798"><ele>796.590027</ele><time>2008-07-27T09:48:29Z</time></trkpt>
<trkpt lat="47.37632797" lon="7.14965302"><ele>796.590027</ele><time>2008-07-27T09:48:32Z</time></trkpt>
<trkpt lat="47.37626402" lon="7.14946199"><ele>796.109009</ele><time>2008-07-27T09:48:35Z</time></trkpt>
<trkpt lat="47.37607098" lon="7.14893402"><ele>798.512024</ele><time>2008-07-27T09:48:50Z</time></trkpt>
<trkpt lat="47.37593402" lon="7.14841501"><ele>800.434998</ele><time>2008-07-27T09:49:06Z</time></trkpt>
<trkpt lat="47.37577099" lon="7.14790396"><ele>801.395996</ele><time>2008-07-27T09:49:21Z</time></trkpt>
<trkpt lat="47.37559699" lon="7.14740901"><ele>801.877014</ele><time>2008-07-27T09:49:36Z</time></trkpt>
<trkpt lat="47.37550898" lon="7.14718899"><ele>801.395996</ele><time>2008-07-27T09:49:41Z</time></trkpt>
<trkpt lat="47.37533203" lon="7.14672798"><ele>799.953979</ele><time>2008-07-27T09:49:49Z</time></trkpt>
<trkpt lat="47.37520203" lon="7.14639103"><ele>798.512024</ele><time>2008-07-27T09:49:54Z</time></trkpt>
<trkpt lat="47.37517797" lon="7.14632297"><ele>798.031982</ele><time>2008-07-27T09:49:55Z</time></trkpt>
<trkpt lat="47.37512399" lon="7.14618903"><ele>797.551025</ele><time>2008-07-27T09:49:57Z</time></trkpt>
<trkpt lat="47.37495099" lon="7.14585098"><ele>795.146973</ele><time>2008-07-27T09:50:05Z</time></trkpt>
<trkpt lat="47.37465503" lon="7.14544304"><ele>791.302002</ele><time>2008-07-27T09:50:14Z</time></trkpt>
<trkpt lat="47.37448596" lon="7.14501497"><ele>788.41803</ele><time>2008-07-27T09:50:19Z</time></trkpt>
<trkpt lat="47.37438496" lon="7.14436403"><ele>785.054016</ele><time>2008-07-27T09:50:25Z</time></trkpt>
<trkpt lat="47.37437096" lon="7.14424803"><ele>785.054016</ele><time>2008-07-27T09:50:26Z</time></trkpt>
<trkpt lat="47.37434297" lon="7.14368602"><ele>784.093018</ele><time>2008-07-27T09:50:31Z</time></trkpt>
<trkpt lat="47.37433601" lon="7.14348896"><ele>783.612</ele><time>2008-07-27T09:50:33Z</time></trkpt>
<trkpt lat="47.37425496" lon="7.14318101"><ele>784.093018</ele><time>2008-07-27T09:50:37Z</time></trkpt>
<trkpt lat="47.37407399" lon="7.14289703"><ele>785.533997</ele><time>2008-07-27T09:50:44Z</time></trkpt>
<trkpt lat="47.37402102" lon="7.14282202"><ele>786.495972</ele><time>2008-07-27T09:50:47Z</time></trkpt>
<trkpt lat="47.37393100" lon="7.14268799"><ele>787.937988</ele><time>2008-07-27T09:50:53Z</time></trkpt>
<trkpt lat="47.37386696" lon="7.14259403"><ele>788.41803</ele><time>2008-07-27T09:50:57Z</time></trkpt>
<trkpt lat="47.37375297" lon="7.14243704"><ele>788.898987</ele><time>2008-07-27T09:51:04Z</time></trkpt>
<trkpt lat="47.37348801" lon="7.14204803"><ele>789.380005</ele><time>2008-07-27T09:51:19Z</time></trkpt>
<trkpt lat="47.37339699" lon="7.14193203"><ele>788.898987</ele><time>2008-07-27T09:51:22Z</time></trkpt>
<trkpt lat="47.37306196" lon="7.14161804"><ele>787.937988</ele><time>2008-07-27T09:51:30Z</time></trkpt>
<trkpt lat="47.37290598" lon="7.14148703"><ele>786.976013</ele><time>2008-07-27T09:51:35Z</time></trkpt>
<trkpt lat="47.37286398" lon="7.14136398"><ele>786.976013</ele><time>2008-07-27T09:51:40Z</time></trkpt>
<trkpt lat="47.37287597" lon="7.14079200"><ele>788.41803</ele><time>2008-07-27T09:52:01Z</time></trkpt>
<trkpt lat="47.37280103" lon="7.14045798"><ele>790.341003</ele><time>2008-07-27T09:52:12Z</time></trkpt>
<trkpt lat="47.37270598" lon="7.14016101"><ele>790.822021</ele><time>2008-07-27T09:52:21Z</time></trkpt>
<trkpt lat="47.37259199" lon="7.13986496"><ele>792.263977</ele><time>2008-07-27T09:52:31Z</time></trkpt>
<trkpt lat="47.37234900" lon="7.13941201"><ele>789.859985</ele><time>2008-07-27T09:52:42Z</time></trkpt>
<trkpt lat="47.37225202" lon="7.13924202"><ele>788.41803</ele><time>2008-07-27T09:52:45Z</time></trkpt>
<trkpt lat="47.37199302" lon="7.13870902"><ele>784.572998</ele><time>2008-07-27T09:52:51Z</time></trkpt>
<trkpt lat="47.37182203" lon="7.13814299"><ele>781.208984</ele><time>2008-07-27T09:52:56Z</time></trkpt>
<trkpt lat="47.37170904" lon="7.13753102"><ele>776.882996</ele><time>2008-07-27T09:53:01Z</time></trkpt>
<trkpt lat="47.37162497" lon="7.13701403"><ele>773.518005</ele><time>2008-07-27T09:53:06Z</time></trkpt>
<trkpt lat="47.37162002" lon="7.13694999"><ele>773.518005</ele><time>2008-07-27T09:53:07Z</time></trkpt>
<trkpt lat="47.37159697" lon="7.13673198"><ele>772.075989</ele><time>2008-07-27T09:53:12Z</time></trkpt>
<trkpt lat="47.37157099" lon="7.13629100"><ele>770.153015</ele><time>2008-07-27T09:53:18Z</time></trkpt>
<trkpt lat="47.37154098" lon="7.13609797"><ele>769.672974</ele><time>2008-07-27T09:53:20Z</time></trkpt>
<trkpt lat="47.37149497" lon="7.13563898"><ele>766.789001</ele><time>2008-07-27T09:53:24Z</time></trkpt>
<trkpt lat="47.37154802" lon="7.13489299"><ele>762.463013</ele><time>2008-07-27T09:53:30Z</time></trkpt>
<trkpt lat="47.37158096" lon="7.13464899"><ele>761.020996</ele><time>2008-07-27T09:53:32Z</time></trkpt>
<trkpt lat="47.37167601" lon="7.13432302"><ele>759.578979</ele><time>2008-07-27T09:53:35Z</time></trkpt>
<trkpt lat="47.37185103" lon="7.13408698"><ele>756.695007</ele><time>2008-07-27T09:53:38Z</time></trkpt>
<trkpt lat="47.37221397" lon="7.13394198"><ele>753.810974</ele><time>2008-07-27T09:53:44Z</time></trkpt>
<trkpt lat="47.37237297" lon="7.13396704"><ele>752.849976</ele><time>2008-07-27T09:53:46Z</time></trkpt>
<trkpt lat="47.37264404" lon="7.13396796"><ele>750.447021</ele><time>2008-07-27T09:53:49Z</time></trkpt>
<trkpt lat="47.37279902" lon="7.13392404"><ele>749.004028</ele><time>2008-07-27T09:53:51Z</time></trkpt>
<trkpt lat="47.37290497" lon="7.13349204"><ele>747.562012</ele><time>2008-07-27T09:53:55Z</time></trkpt>
<trkpt lat="47.37285996" lon="7.13275602"><ele>744.677979</ele><time>2008-07-27T09:54:01Z</time></trkpt>
<trkpt lat="47.37266500" lon="7.13205496"><ele>741.794006</ele><time>2008-07-27T09:54:06Z</time></trkpt>
<trkpt lat="47.37243701" lon="7.13150402"><ele>738.911011</ele><time>2008-07-27T09:54:10Z</time></trkpt>
<trkpt lat="47.37217600" lon="7.13094000"><ele>736.026978</ele><time>2008-07-27T09:54:14Z</time></trkpt>
<trkpt lat="47.37186704" lon="7.13042099"><ele>732.661987</ele><time>2008-07-27T09:54:18Z</time></trkpt>
<trkpt lat="47.37161298" lon="7.13001204"><ele>730.739014</ele><time>2008-07-27T09:54:21Z</time></trkpt>
<trkpt lat="47.37136597" lon="7.12958599"><ele>727.375</ele><time>2008-07-27T09:54:24Z</time></trkpt>
<trkpt lat="47.37104997" lon="7.12913697"><ele>723.049011</ele><time>2008-07-27T09:54:28Z</time></trkpt>
<trkpt lat="47.37081402" lon="7.12876297"><ele>719.684021</ele><time>2008-07-27T09:54:32Z</time></trkpt>
<trkpt lat="47.37050800" lon="7.12842400"><ele>717.281006</ele><time>2008-07-27T09:54:37Z</time></trkpt>
<trkpt lat="47.37021798" lon="7.12792201"><ele>714.877014</ele><time>2008-07-27T09:54:42Z</time></trkpt>
<trkpt lat="47.37003601" lon="7.12742404"><ele>712.473999</ele><time>2008-07-27T09:54:46Z</time></trkpt>
<trkpt lat="47.36999301" lon="7.12728800"><ele>712.473999</ele><time>2008-07-27T09:54:47Z</time></trkpt>
<trkpt lat="47.36983401" lon="7.12673899"><ele>708.629028</ele><time>2008-07-27T09:54:51Z</time></trkpt>
<trkpt lat="47.36972697" lon="7.12611102"><ele>706.705994</ele><time>2008-07-27T09:54:55Z</time></trkpt>
<trkpt lat="47.36957501" lon="7.12547801"><ele>702.380005</ele><time>2008-07-27T09:54:59Z</time></trkpt>
<trkpt lat="47.36951097" lon="7.12506202"><ele>699.97699</ele><time>2008-07-27T09:55:02Z</time></trkpt>
<trkpt lat="47.36947602" lon="7.12482900"><ele>699.495972</ele><time>2008-07-27T09:55:04Z</time></trkpt>
<trkpt lat="47.36911400" lon="7.12433900"><ele>696.612976</ele><time>2008-07-27T09:55:10Z</time></trkpt>
<trkpt lat="47.36905499" lon="7.12422702"><ele>695.651001</ele><time>2008-07-27T09:55:11Z</time></trkpt>
<trkpt lat="47.36877504" lon="7.12363701"><ele>692.286987</ele><time>2008-07-27T09:55:16Z</time></trkpt>
<trkpt lat="47.36868703" lon="7.12336997"><ele>690.843994</ele><time>2008-07-27T09:55:18Z</time></trkpt>
<trkpt lat="47.36839299" lon="7.12270302"><ele>686.999023</ele><time>2008-07-27T09:55:23Z</time></trkpt>
<trkpt lat="47.36816601" lon="7.12221603"><ele>684.11499</ele><time>2008-07-27T09:55:27Z</time></trkpt>
<trkpt lat="47.36810801" lon="7.12211402"><ele>683.63501</ele><time>2008-07-27T09:55:28Z</time></trkpt>
<trkpt lat="47.36793601" lon="7.12178302"><ele>681.231018</ele><time>2008-07-27T09:55:31Z</time></trkpt>
<trkpt lat="47.36769897" lon="7.12121003"><ele>676.906006</ele><time>2008-07-27T09:55:38Z</time></trkpt>
<trkpt lat="47.36761699" lon="7.12108003"><ele>675.94397</ele><time>2008-07-27T09:55:41Z</time></trkpt>
<trkpt lat="47.36737702" lon="7.12056999"><ele>673.541016</ele><time>2008-07-27T09:55:48Z</time></trkpt>
<trkpt lat="47.36716404" lon="7.12022097"><ele>671.138</ele><time>2008-07-27T09:55:52Z</time></trkpt>
<trkpt lat="47.36680001" lon="7.11978301"><ele>667.77301</ele><time>2008-07-27T09:55:57Z</time></trkpt>
<trkpt lat="47.36649298" lon="7.11941698"><ele>665.369995</ele><time>2008-07-27T09:56:01Z</time></trkpt>
<trkpt lat="47.36626902" lon="7.11918597"><ele>663.927002</ele><time>2008-07-27T09:56:04Z</time></trkpt>
<trkpt lat="47.36615402" lon="7.11902998"><ele>662.486023</ele><time>2008-07-27T09:56:06Z</time></trkpt>
<trkpt lat="47.36607397" lon="7.11848700"><ele>658.159973</ele><time>2008-07-27T09:56:11Z</time></trkpt>
<trkpt lat="47.36628796" lon="7.11804897"><ele>654.794983</ele><time>2008-07-27T09:56:17Z</time></trkpt>
<trkpt lat="47.36641897" lon="7.11748101"><ele>652.392029</ele><time>2008-07-27T09:56:25Z</time></trkpt>
<trkpt lat="47.36637999" lon="7.11740398"><ele>652.392029</ele><time>2008-07-27T09:56:26Z</time></trkpt>
<trkpt lat="47.36626600" lon="7.11721002"><ele>652.872986</ele><time>2008-07-27T09:56:29Z</time></trkpt>
<trkpt lat="47.36607196" lon="7.11665899"><ele>652.872986</ele><time>2008-07-27T09:56:39Z</time></trkpt>
<trkpt lat="47.36600096" lon="7.11607997"><ele>651.429993</ele><time>2008-07-27T09:56:47Z</time></trkpt>
<trkpt lat="47.36603198" lon="7.11555401"><ele>650.950012</ele><time>2008-07-27T09:56:54Z</time></trkpt>
<trkpt lat="47.36613097" lon="7.11527498"><ele>650.950012</ele><time>2008-07-27T09:56:58Z</time></trkpt>
<trkpt lat="47.36642299" lon="7.11479503"><ele>649.989014</ele><time>2008-07-27T09:57:06Z</time></trkpt>
<trkpt lat="47.36670496" lon="7.11441902"><ele>648.546021</ele><time>2008-07-27T09:57:12Z</time></trkpt>
<trkpt lat="47.36675198" lon="7.11435104"><ele>648.065979</ele><time>2008-07-27T09:57:13Z</time></trkpt>
<trkpt lat="47.36702599" lon="7.11377604"><ele>647.585022</ele><time>2008-07-27T09:57:20Z</time></trkpt>
<trkpt lat="47.36713101" lon="7.11353296"><ele>647.104004</ele><time>2008-07-27T09:57:23Z</time></trkpt>
<trkpt lat="47.36712003" lon="7.11326097"><ele>646.143005</ele><time>2008-07-27T09:57:27Z</time></trkpt>
<trkpt lat="47.36700696" lon="7.11305796"><ele>645.663025</ele><time>2008-07-27T09:57:32Z</time></trkpt>
<trkpt lat="47.36690302" lon="7.11313901"><ele>645.182007</ele><time>2008-07-27T09:57:37Z</time></trkpt>
<trkpt lat="47.36658200" lon="7.11355400"><ele>643.258972</ele><time>2008-07-27T09:57:46Z</time></trkpt>
<trkpt lat="47.36631101" lon="7.11370697"><ele>641.817017</ele><time>2008-07-27T09:57:51Z</time></trkpt>
<trkpt lat="47.36618101" lon="7.11377604"><ele>640.375</ele><time>2008-07-27T09:57:53Z</time></trkpt>
<trkpt lat="47.36611202" lon="7.11380797"><ele>639.89502</ele><time>2008-07-27T09:57:54Z</time></trkpt>
<trkpt lat="47.36588404" lon="7.11383396"><ele>638.453003</ele><time>2008-07-27T09:57:57Z</time></trkpt>
<trkpt lat="47.36580499" lon="7.11381401"><ele>637.491028</ele><time>2008-07-27T09:57:58Z</time></trkpt>
<trkpt lat="47.36543904" lon="7.11371996"><ele>635.088013</ele><time>2008-07-27T09:58:03Z</time></trkpt>
<trkpt lat="47.36511600" lon="7.11325603"><ele>631.242981</ele><time>2008-07-27T09:58:09Z</time></trkpt>
<trkpt lat="47.36509002" lon="7.11313399"><ele>630.281006</ele><time>2008-07-27T09:58:10Z</time></trkpt>
<trkpt lat="47.36499002" lon="7.11242303"><ele>626.435974</ele><time>2008-07-27T09:58:15Z</time></trkpt>
<trkpt lat="47.36487200" lon="7.11173697"><ele>623.072021</ele><time>2008-07-27T09:58:19Z</time></trkpt>
<trkpt lat="47.36477704" lon="7.11119601"><ele>620.66803</ele><time>2008-07-27T09:58:22Z</time></trkpt>
<trkpt lat="47.36472096" lon="7.11082804"><ele>618.745972</ele><time>2008-07-27T09:58:24Z</time></trkpt>
<trkpt lat="47.36460504" lon="7.11025497"><ele>615.380981</ele><time>2008-07-27T09:58:27Z</time></trkpt>
<trkpt lat="47.36451401" lon="7.10965801"><ele>611.536011</ele><time>2008-07-27T09:58:30Z</time></trkpt>
<trkpt lat="47.36441997" lon="7.10912802"><ele>608.651978</ele><time>2008-07-27T09:58:33Z</time></trkpt>
<trkpt lat="47.36434302" lon="7.10861203"><ele>604.807007</ele><time>2008-07-27T09:58:36Z</time></trkpt>
<trkpt lat="47.36427798" lon="7.10814499"><ele>602.403015</ele><time>2008-07-27T09:58:39Z</time></trkpt>
<trkpt lat="47.36416399" lon="7.10737696"><ele>597.596985</ele><time>2008-07-27T09:58:44Z</time></trkpt>
<trkpt lat="47.36414102" lon="7.10707404"><ele>596.155029</ele><time>2008-07-27T09:58:46Z</time></trkpt>
<trkpt lat="47.36400900" lon="7.10637901"><ele>591.348022</ele><time>2008-07-27T09:58:52Z</time></trkpt>
<trkpt lat="47.36398302" lon="7.10628698"><ele>590.387024</ele><time>2008-07-27T09:58:53Z</time></trkpt>
<trkpt lat="47.36378797" lon="7.10619897"><ele>588.945007</ele><time>2008-07-27T09:58:57Z</time></trkpt>
<trkpt lat="47.36371798" lon="7.10644598"><ele>587.502991</ele><time>2008-07-27T09:59:00Z</time></trkpt>
<trkpt lat="47.36357398" lon="7.10693196"><ele>585.580017</ele><time>2008-07-27T09:59:10Z</time></trkpt>
<trkpt lat="47.36331599" lon="7.10710203"><ele>582.695984</ele><time>2008-07-27T09:59:18Z</time></trkpt>
<trkpt lat="47.36320099" lon="7.10700396"><ele>581.254028</ele><time>2008-07-27T09:59:21Z</time></trkpt>
<trkpt lat="47.36294199" lon="7.10687002"><ele>579.33197</ele><time>2008-07-27T09:59:26Z</time></trkpt>
<trkpt lat="47.36284501" lon="7.10680003"><ele>578.851013</ele><time>2008-07-27T09:59:28Z</time></trkpt>
<trkpt lat="47.36262800" lon="7.10660096"><ele>576.927979</ele><time>2008-07-27T09:59:32Z</time></trkpt>
<trkpt lat="47.36228501" lon="7.10636904"><ele>574.044006</ele><time>2008-07-27T09:59:38Z</time></trkpt>
<trkpt lat="47.36191998" lon="7.10622503"><ele>570.679993</ele><time>2008-07-27T09:59:44Z</time></trkpt>
<trkpt lat="47.36163198" lon="7.10623601"><ele>568.276001</ele><time>2008-07-27T09:59:49Z</time></trkpt>
<trkpt lat="47.36141598" lon="7.10615203"><ele>566.354004</ele><time>2008-07-27T09:59:53Z</time></trkpt>
<trkpt lat="47.36131598" lon="7.10606402"><ele>564.911987</ele><time>2008-07-27T09:59:55Z</time></trkpt>
<trkpt lat="47.36122102" lon="7.10600199"><ele>564.43103</ele><time>2008-07-27T09:59:57Z</time></trkpt>
<trkpt lat="47.36105698" lon="7.10593997"><ele>562.508972</ele><time>2008-07-27T10:00:01Z</time></trkpt>
<trkpt lat="47.36097299" lon="7.10587299"><ele>561.067017</ele><time>2008-07-27T10:00:03Z</time></trkpt>
<trkpt lat="47.36072296" lon="7.10570100"><ele>559.143982</ele><time>2008-07-27T10:00:08Z</time></trkpt>
<trkpt lat="47.36045801" lon="7.10563201"><ele>556.741028</ele><time>2008-07-27T10:00:13Z</time></trkpt>
<trkpt lat="47.36040303" lon="7.10562003"><ele>556.26001</ele><time>2008-07-27T10:00:14Z</time></trkpt>
<trkpt lat="47.35994898" lon="7.10564199"><ele>552.414978</ele><time>2008-07-27T10:00:22Z</time></trkpt>
<trkpt lat="47.35973298" lon="7.10563000"><ele>550.492004</ele><time>2008-07-27T10:00:26Z</time></trkpt>
<trkpt lat="47.35934397" lon="7.10547402"><ele>546.646973</ele><time>2008-07-27T10:00:33Z</time></trkpt>
<trkpt lat="47.35924297" lon="7.10537896"><ele>545.685974</ele><time>2008-07-27T10:00:35Z</time></trkpt>
<trkpt lat="47.35911498" lon="7.10525198"><ele>543.281982</ele><time>2008-07-27T10:00:38Z</time></trkpt>
<trkpt lat="47.35888196" lon="7.10497303"><ele>541.359009</ele><time>2008-07-27T10:00:43Z</time></trkpt>
<trkpt lat="47.35872497" lon="7.10473197"><ele>539.437012</ele><time>2008-07-27T10:00:47Z</time></trkpt>
<trkpt lat="47.35850603" lon="7.10429703"><ele>535.59198</ele><time>2008-07-27T10:00:53Z</time></trkpt>
<trkpt lat="47.35847896" lon="7.10421698"><ele>534.630005</ele><time>2008-07-27T10:00:54Z</time></trkpt>
<trkpt lat="47.35844300" lon="7.10404599"><ele>533.669006</ele><time>2008-07-27T10:00:56Z</time></trkpt>
<trkpt lat="47.35827997" lon="7.10340201"><ele>529.343018</ele><time>2008-07-27T10:01:03Z</time></trkpt>
<trkpt lat="47.35816699" lon="7.10294503"><ele>526.940002</ele><time>2008-07-27T10:01:09Z</time></trkpt>
<trkpt lat="47.35813798" lon="7.10271402"><ele>525.497986</ele><time>2008-07-27T10:01:12Z</time></trkpt>
<trkpt lat="47.35804897" lon="7.10207096"><ele>521.171997</ele><time>2008-07-27T10:01:19Z</time></trkpt>
<trkpt lat="47.35800002" lon="7.10150099"><ele>517.807007</ele><time>2008-07-27T10:01:25Z</time></trkpt>
<trkpt lat="47.35799398" lon="7.10132699"><ele>516.36499</ele><time>2008-07-27T10:01:27Z</time></trkpt>
<trkpt lat="47.35803296" lon="7.10069298"><ele>511.55899</ele><time>2008-07-27T10:01:35Z</time></trkpt>
<trkpt lat="47.35804201" lon="7.10053003"><ele>510.596985</ele><time>2008-07-27T10:01:37Z</time></trkpt>
<trkpt lat="47.35806598" lon="7.10008998"><ele>507.233002</ele><time>2008-07-27T10:01:43Z</time></trkpt>
<trkpt lat="47.35809398" lon="7.09982998"><ele>505.790985</ele><time>2008-07-27T10:01:46Z</time></trkpt>
<trkpt lat="47.35815399" lon="7.09935104"><ele>503.386993</ele><time>2008-07-27T10:01:51Z</time></trkpt>
<trkpt lat="47.35815098" lon="7.09916797"><ele>502.425995</ele><time>2008-07-27T10:01:53Z</time></trkpt>
<trkpt lat="47.35814100" lon="7.09889699"><ele>500.984009</ele><time>2008-07-27T10:01:56Z</time></trkpt>
<trkpt lat="47.35810203" lon="7.09852198"><ele>499.062012</ele><time>2008-07-27T10:02:00Z</time></trkpt>
<trkpt lat="47.35810999" lon="7.09834102"><ele>499.062012</ele><time>2008-07-27T10:02:02Z</time></trkpt>
<trkpt lat="47.35811502" lon="7.09801001"><ele>495.696991</ele><time>2008-07-27T10:02:06Z</time></trkpt>
<trkpt lat="47.35807797" lon="7.09774598"><ele>493.773987</ele><time>2008-07-27T10:02:09Z</time></trkpt>
<trkpt lat="47.35801997" lon="7.09752998"><ele>491.85199</ele><time>2008-07-27T10:02:12Z</time></trkpt>
<trkpt lat="47.35796297" lon="7.09737500"><ele>490.890015</ele><time>2008-07-27T10:02:14Z</time></trkpt>
<trkpt lat="47.35788602" lon="7.09716202"><ele>488.967987</ele><time>2008-07-27T10:02:17Z</time></trkpt>
<trkpt lat="47.35777404" lon="7.09658300"><ele>485.602997</ele><time>2008-07-27T10:02:25Z</time></trkpt>
<trkpt lat="47.35776499" lon="7.09639097"><ele>484.161011</ele><time>2008-07-27T10:02:32Z</time></trkpt>
<trkpt lat="47.35777203" lon="7.09628896"><ele>483.679993</ele><time>2008-07-27T10:02:36Z</time></trkpt>
<trkpt lat="47.35768997" lon="7.09571597"><ele>480.31601</ele><time>2008-07-27T10:02:48Z</time></trkpt>
<trkpt lat="47.35765301" lon="7.09560298"><ele>479.834991</ele><time>2008-07-27T10:02:50Z</time></trkpt>
<trkpt lat="47.35762501" lon="7.09546996"><ele>478.873993</ele><time>2008-07-27T10:02:52Z</time></trkpt>
<trkpt lat="47.35746500" lon="7.09505104"><ele>475.98999</ele><time>2008-07-27T10:02:58Z</time></trkpt>
<trkpt lat="47.35725797" lon="7.09443798"><ele>472.144989</ele><time>2008-07-27T10:03:06Z</time></trkpt>
<trkpt lat="47.35717499" lon="7.09419700"><ele>470.221985</ele><time>2008-07-27T10:03:09Z</time></trkpt>
<trkpt lat="47.35709896" lon="7.09398301"><ele>468.779999</ele><time>2008-07-27T10:03:12Z</time></trkpt>
<trkpt lat="47.35705303" lon="7.09382904"><ele>467.819</ele><time>2008-07-27T10:03:14Z</time></trkpt>
<trkpt lat="47.35691397" lon="7.09333501"><ele>464.45401</ele><time>2008-07-27T10:03:20Z</time></trkpt>
<trkpt lat="47.35691104" lon="7.09327298"><ele>463.493011</ele><time>2008-07-27T10:03:21Z</time></trkpt>
<trkpt lat="47.35679696" lon="7.09288297"><ele>461.570007</ele><time>2008-07-27T10:03:26Z</time></trkpt>
<trkpt lat="47.35661097" lon="7.09234896"><ele>457.243988</ele><time>2008-07-27T10:03:33Z</time></trkpt>
<trkpt lat="47.35658901" lon="7.09220203"><ele>456.764008</ele><time>2008-07-27T10:03:35Z</time></trkpt>
<trkpt lat="47.35661801" lon="7.09193297"><ele>454.841003</ele><time>2008-07-27T10:03:39Z</time></trkpt>
<trkpt lat="47.35656101" lon="7.09138798"><ele>449.553986</ele><time>2008-07-27T10:03:46Z</time></trkpt>
<trkpt lat="47.35631299" lon="7.09110500"><ele>448.59201</ele><time>2008-07-27T10:03:52Z</time></trkpt>
<trkpt lat="47.35624703" lon="7.09115697"><ele>448.112</ele><time>2008-07-27T10:04:22Z</time></trkpt>
<trkpt lat="47.35623596" lon="7.09120098"><ele>448.112</ele><time>2008-07-27T10:04:48Z</time></trkpt>
<trkpt lat="47.35614502" lon="7.09138303"><ele>445.708008</ele><time>2008-07-27T10:05:16Z</time></trkpt>
<trkpt lat="47.35604703" lon="7.09161303"><ele>444.265991</ele><time>2008-07-27T10:05:20Z</time></trkpt>
<trkpt lat="47.35594402" lon="7.09192802"><ele>441.381989</ele><time>2008-07-27T10:05:25Z</time></trkpt>
<trkpt lat="47.35590203" lon="7.09204403"><ele>440.902008</ele><time>2008-07-27T10:05:27Z</time></trkpt>
<trkpt lat="47.35584302" lon="7.09215903"><ele>440.42099</ele><time>2008-07-27T10:05:29Z</time></trkpt>
<trkpt lat="47.35560204" lon="7.09232499"><ele>438.498993</ele><time>2008-07-27T10:05:35Z</time></trkpt>
<trkpt lat="47.35525997" lon="7.09224997"><ele>438.498993</ele><time>2008-07-27T10:05:45Z</time></trkpt>
<trkpt lat="47.35497801" lon="7.09217403"><ele>438.498993</ele><time>2008-07-27T10:05:54Z</time></trkpt>
<trkpt lat="47.35490802" lon="7.09216003"><ele>438.498993</ele><time>2008-07-27T10:05:56Z</time></trkpt>
<trkpt lat="47.35450803" lon="7.09206901"><ele>437.536987</ele><time>2008-07-27T10:06:06Z</time></trkpt>
<trkpt lat="47.35413001" lon="7.09197203"><ele>436.575989</ele><time>2008-07-27T10:06:14Z</time></trkpt>
<trkpt lat="47.35383103" lon="7.09190397"><ele>436.575989</ele><time>2008-07-27T10:06:20Z</time></trkpt>
<trkpt lat="47.35347102" lon="7.09183297"><ele>436.095001</ele><time>2008-07-27T10:06:27Z</time></trkpt>
<trkpt lat="47.35309501" lon="7.09178402"><ele>435.61499</ele><time>2008-07-27T10:06:34Z</time></trkpt>
<trkpt lat="47.35270500" lon="7.09171202"><ele>436.095001</ele><time>2008-07-27T10:06:41Z</time></trkpt>
<trkpt lat="47.35232899" lon="7.09155402"><ele>436.575989</ele><time>2008-07-27T10:06:48Z</time></trkpt>
<trkpt lat="47.35201500" lon="7.09130097"><ele>437.536987</ele><time>2008-07-27T10:06:55Z</time></trkpt>
<trkpt lat="47.35172499" lon="7.09097098"><ele>438.498993</ele><time>2008-07-27T10:07:03Z</time></trkpt>
<trkpt lat="47.35153900" lon="7.09071902"><ele>439.940002</ele><time>2008-07-27T10:07:09Z</time></trkpt>
<trkpt lat="47.35134303" lon="7.09040998"><ele>440.42099</ele><time>2008-07-27T10:07:16Z</time></trkpt>
<trkpt lat="47.35110004" lon="7.08998996"><ele>440.902008</ele><time>2008-07-27T10:07:25Z</time></trkpt>
<trkpt lat="47.35085302" lon="7.08954798"><ele>441.381989</ele><time>2008-07-27T10:07:34Z</time></trkpt>
<trkpt lat="47.35063501" lon="7.08905898"><ele>441.863007</ele><time>2008-07-27T10:07:43Z</time></trkpt>
<trkpt lat="47.35045496" lon="7.08857602"><ele>441.381989</ele><time>2008-07-27T10:07:51Z</time></trkpt>
<trkpt lat="47.35026503" lon="7.08807603"><ele>441.863007</ele><time>2008-07-27T10:07:59Z</time></trkpt>
<trkpt lat="47.35008901" lon="7.08755703"><ele>441.863007</ele><time>2008-07-27T10:08:07Z</time></trkpt>
<trkpt lat="47.34994400" lon="7.08701002"><ele>442.343994</ele><time>2008-07-27T10:08:15Z</time></trkpt>
<trkpt lat="47.34984501" lon="7.08649999"><ele>442.343994</ele><time>2008-07-27T10:08:22Z</time></trkpt>
<trkpt lat="47.34976999" lon="7.08594401"><ele>442.343994</ele><time>2008-07-27T10:08:29Z</time></trkpt>
<trkpt lat="47.34969900" lon="7.08534404"><ele>442.343994</ele><time>2008-07-27T10:08:36Z</time></trkpt>
<trkpt lat="47.34967704" lon="7.08473199"><ele>441.863007</ele><time>2008-07-27T10:08:43Z</time></trkpt>
<trkpt lat="47.34973303" lon="7.08412204"><ele>441.381989</ele><time>2008-07-27T10:08:50Z</time></trkpt>
<trkpt lat="47.34978600" lon="7.08359297"><ele>440.902008</ele><time>2008-07-27T10:08:56Z</time></trkpt>
<trkpt lat="47.34984401" lon="7.08303097"><ele>439.459991</ele><time>2008-07-27T10:09:02Z</time></trkpt>
<trkpt lat="47.34991802" lon="7.08248899"><ele>437.536987</ele><time>2008-07-27T10:09:07Z</time></trkpt>
<trkpt lat="47.35003696" lon="7.08188600"><ele>435.61499</ele><time>2008-07-27T10:09:12Z</time></trkpt>
<trkpt lat="47.35014601" lon="7.08137303"><ele>433.691986</ele><time>2008-07-27T10:09:16Z</time></trkpt>
<trkpt lat="47.35019797" lon="7.08111302"><ele>432.730988</ele><time>2008-07-27T10:09:18Z</time></trkpt>
<trkpt lat="47.35032404" lon="7.08049402"><ele>432.25</ele><time>2008-07-27T10:09:23Z</time></trkpt>
<trkpt lat="47.35043602" lon="7.07993897"><ele>431.769012</ele><time>2008-07-27T10:09:28Z</time></trkpt>
<trkpt lat="47.35057298" lon="7.07935098"><ele>432.25</ele><time>2008-07-27T10:09:34Z</time></trkpt>
<trkpt lat="47.35084204" lon="7.07883398"><ele>432.730988</ele><time>2008-07-27T10:09:41Z</time></trkpt>
<trkpt lat="47.35099602" lon="7.07858596"><ele>433.210999</ele><time>2008-07-27T10:09:45Z</time></trkpt>
<trkpt lat="47.35130296" lon="7.07819704"><ele>433.691986</ele><time>2008-07-27T10:09:53Z</time></trkpt>
<trkpt lat="47.35161703" lon="7.07793502"><ele>434.653015</ele><time>2008-07-27T10:10:01Z</time></trkpt>
<trkpt lat="47.35183597" lon="7.07780502"><ele>434.653015</ele><time>2008-07-27T10:10:08Z</time></trkpt>
<trkpt lat="47.35180101" lon="7.07757996"><ele>433.691986</ele><time>2008-07-27T10:10:13Z</time></trkpt>
<trkpt lat="47.35159197" lon="7.07738400"><ele>432.730988</ele><time>2008-07-27T10:10:18Z</time></trkpt>
<trkpt lat="47.35146498" lon="7.07724301"><ele>431.769012</ele><time>2008-07-27T10:10:22Z</time></trkpt>
<trkpt lat="47.35144001" lon="7.07717403"><ele>432.25</ele><time>2008-07-27T10:10:24Z</time></trkpt>
<trkpt lat="47.35120196" lon="7.07671302"><ele>430.808014</ele><time>2008-07-27T10:10:40Z</time></trkpt>
<trkpt lat="47.35103097" lon="7.07647699"><ele>430.808014</ele><time>2008-07-27T10:10:46Z</time></trkpt>
<trkpt lat="47.35074900" lon="7.07610399"><ele>431.769012</ele><time>2008-07-27T10:10:56Z</time></trkpt>
<trkpt lat="47.35046603" lon="7.07572496"><ele>431.769012</ele><time>2008-07-27T10:11:10Z</time></trkpt>
<trkpt lat="47.35020602" lon="7.07546999"><ele>431.769012</ele><time>2008-07-27T10:11:21Z</time></trkpt>
<trkpt lat="47.34996303" lon="7.07581499"><ele>432.25</ele><time>2008-07-27T10:11:32Z</time></trkpt>
<trkpt lat="47.34974904" lon="7.07625001"><ele>431.769012</ele><time>2008-07-27T10:11:41Z</time></trkpt>
<trkpt lat="47.34949096" lon="7.07665502"><ele>431.289001</ele><time>2008-07-27T10:11:49Z</time></trkpt>
<trkpt lat="47.34923498" lon="7.07708401"><ele>431.289001</ele><time>2008-07-27T10:11:57Z</time></trkpt>
<trkpt lat="47.34894597" lon="7.07746999"><ele>431.769012</ele><time>2008-07-27T10:12:06Z</time></trkpt>
<trkpt lat="47.34867004" lon="7.07785103"><ele>432.25</ele><time>2008-07-27T10:12:15Z</time></trkpt>
<trkpt lat="47.34841699" lon="7.07828698"><ele>432.25</ele><time>2008-07-27T10:12:24Z</time></trkpt>
<trkpt lat="47.34817701" lon="7.07869702"><ele>432.25</ele><time>2008-07-27T10:12:32Z</time></trkpt>
<trkpt lat="47.34812404" lon="7.07879400"><ele>432.25</ele><time>2008-07-27T10:12:34Z</time></trkpt>
<trkpt lat="47.34793704" lon="7.07934704"><ele>432.730988</ele><time>2008-07-27T10:12:45Z</time></trkpt>
<trkpt lat="47.34775499" lon="7.07985599"><ele>433.210999</ele><time>2008-07-27T10:12:55Z</time></trkpt>
<trkpt lat="47.34761903" lon="7.08041296"><ele>433.691986</ele><time>2008-07-27T10:13:04Z</time></trkpt>
<trkpt lat="47.34749104" lon="7.08092401"><ele>434.653015</ele><time>2008-07-27T10:13:14Z</time></trkpt>
<trkpt lat="47.34736799" lon="7.08145902"><ele>434.653015</ele><time>2008-07-27T10:13:24Z</time></trkpt>
<trkpt lat="47.34731804" lon="7.08177100"><ele>435.134003</ele><time>2008-07-27T10:13:29Z</time></trkpt>
<trkpt lat="47.34728401" lon="7.08236402"><ele>435.61499</ele><time>2008-07-27T10:13:39Z</time></trkpt>
<trkpt lat="47.34728702" lon="7.08291303"><ele>435.61499</ele><time>2008-07-27T10:13:48Z</time></trkpt>
<trkpt lat="47.34729700" lon="7.08349197"><ele>434.173004</ele><time>2008-07-27T10:13:56Z</time></trkpt>
<trkpt lat="47.34731301" lon="7.08370001"><ele>433.691986</ele><time>2008-07-27T10:13:59Z</time></trkpt>
<trkpt lat="47.34733698" lon="7.08389497"><ele>433.691986</ele><time>2008-07-27T10:14:03Z</time></trkpt>
<trkpt lat="47.34735500" lon="7.08401903"><ele>433.210999</ele><time>2008-07-27T10:14:07Z</time></trkpt>
<trkpt lat="47.34735802" lon="7.08405297"><ele>433.210999</ele><time>2008-07-27T10:14:08Z</time></trkpt>
<trkpt lat="47.34737000" lon="7.08447802"><ele>433.210999</ele><time>2008-07-27T10:14:16Z</time></trkpt>
<trkpt lat="47.34740202" lon="7.08482604"><ele>432.730988</ele><time>2008-07-27T10:14:21Z</time></trkpt>
<trkpt lat="47.34753102" lon="7.08533800"><ele>431.769012</ele><time>2008-07-27T10:14:28Z</time></trkpt>
<trkpt lat="47.34762096" lon="7.08587402"><ele>431.289001</ele><time>2008-07-27T10:14:34Z</time></trkpt>
<trkpt lat="47.34771299" lon="7.08646797"><ele>431.769012</ele><time>2008-07-27T10:14:41Z</time></trkpt>
<trkpt lat="47.34772900" lon="7.08654902"><ele>431.769012</ele><time>2008-07-27T10:14:42Z</time></trkpt>
<trkpt lat="47.34794903" lon="7.08713600"><ele>431.769012</ele><time>2008-07-27T10:14:50Z</time></trkpt>
<trkpt lat="47.34815103" lon="7.08764504"><ele>431.289001</ele><time>2008-07-27T10:14:57Z</time></trkpt>
<trkpt lat="47.34837399" lon="7.08813999"><ele>431.289001</ele><time>2008-07-27T10:15:04Z</time></trkpt>
<trkpt lat="47.34854104" lon="7.08873804"><ele>431.289001</ele><time>2008-07-27T10:15:12Z</time></trkpt>
<trkpt lat="47.34855797" lon="7.08881197"><ele>431.289001</ele><time>2008-07-27T10:15:13Z</time></trkpt>
<trkpt lat="47.34874799" lon="7.08935503"><ele>431.769012</ele><time>2008-07-27T10:15:21Z</time></trkpt>
<trkpt lat="47.34884698" lon="7.08961202"><ele>431.769012</ele><time>2008-07-27T10:15:25Z</time></trkpt>
<trkpt lat="47.34895804" lon="7.08998300"><ele>432.25</ele><time>2008-07-27T10:15:31Z</time></trkpt>
<trkpt lat="47.34900800" lon="7.09023303"><ele>432.25</ele><time>2008-07-27T10:15:35Z</time></trkpt>
<trkpt lat="47.34921101" lon="7.09079504"><ele>433.210999</ele><time>2008-07-27T10:15:45Z</time></trkpt>
<trkpt lat="47.34928804" lon="7.09120902"><ele>433.210999</ele><time>2008-07-27T10:15:53Z</time></trkpt>
<trkpt lat="47.34940102" lon="7.09139200"><ele>432.730988</ele><time>2008-07-27T10:15:57Z</time></trkpt>
<trkpt lat="47.34970998" lon="7.09165704"><ele>433.210999</ele><time>2008-07-27T10:16:09Z</time></trkpt>
<trkpt lat="47.34984803" lon="7.09167598"><ele>433.210999</ele><time>2008-07-27T10:16:13Z</time></trkpt>
<trkpt lat="47.35019001" lon="7.09195602"><ele>433.210999</ele><time>2008-07-27T10:16:24Z</time></trkpt>
<trkpt lat="47.35034600" lon="7.09215500"><ele>432.730988</ele><time>2008-07-27T10:16:30Z</time></trkpt>
<trkpt lat="47.35064599" lon="7.09247301"><ele>435.134003</ele><time>2008-07-27T10:16:42Z</time></trkpt>
<trkpt lat="47.35087196" lon="7.09290401"><ele>435.61499</ele><time>2008-07-27T10:16:54Z</time></trkpt>
<trkpt lat="47.35103097" lon="7.09312798"><ele>435.61499</ele><time>2008-07-27T10:17:00Z</time></trkpt>
<trkpt lat="47.35120598" lon="7.09318698"><ele>435.134003</ele><time>2008-07-27T10:17:04Z</time></trkpt>
<trkpt lat="47.35137999" lon="7.09327801"><ele>435.134003</ele><time>2008-07-27T10:17:08Z</time></trkpt>
<trkpt lat="47.35180998" lon="7.09334901"><ele>435.134003</ele><time>2008-07-27T10:17:18Z</time></trkpt>
<trkpt lat="47.35218901" lon="7.09336502"><ele>436.095001</ele><time>2008-07-27T10:17:27Z</time></trkpt>
<trkpt lat="47.35258799" lon="7.09338597"><ele>436.095001</ele><time>2008-07-27T10:17:37Z</time></trkpt>
<trkpt lat="47.35298504" lon="7.09340399"><ele>435.61499</ele><time>2008-07-27T10:17:46Z</time></trkpt>
<trkpt lat="47.35338503" lon="7.09338203"><ele>434.173004</ele><time>2008-07-27T10:17:54Z</time></trkpt>
<trkpt lat="47.35375299" lon="7.09334398"><ele>433.210999</ele><time>2008-07-27T10:18:00Z</time></trkpt>
<trkpt lat="47.35413102" lon="7.09329100"><ele>432.730988</ele><time>2008-07-27T10:18:07Z</time></trkpt>
<trkpt lat="47.35451499" lon="7.09324004"><ele>432.730988</ele><time>2008-07-27T10:18:14Z</time></trkpt>
<trkpt lat="47.35485303" lon="7.09343802"><ele>432.730988</ele><time>2008-07-27T10:18:21Z</time></trkpt>
<trkpt lat="47.35517004" lon="7.09384798"><ele>432.730988</ele><time>2008-07-27T10:18:30Z</time></trkpt>
<trkpt lat="47.35530297" lon="7.09403699"><ele>432.730988</ele><time>2008-07-27T10:18:35Z</time></trkpt>
<trkpt lat="47.35554999" lon="7.09448199"><ele>432.730988</ele><time>2008-07-27T10:18:45Z</time></trkpt>
<trkpt lat="47.35575300" lon="7.09492397"><ele>433.210999</ele><time>2008-07-27T10:18:55Z</time></trkpt>
<trkpt lat="47.35596296" lon="7.09536100"><ele>434.173004</ele><time>2008-07-27T10:19:06Z</time></trkpt>
<trkpt lat="47.35614602" lon="7.09582804"><ele>435.61499</ele><time>2008-07-27T10:19:19Z</time></trkpt>
<trkpt lat="47.35627200" lon="7.09634797"><ele>435.61499</ele><time>2008-07-27T10:19:34Z</time></trkpt>
<trkpt lat="47.35628600" lon="7.09673597"><ele>435.134003</ele><time>2008-07-27T10:19:43Z</time></trkpt>
<trkpt lat="47.35627502" lon="7.09690302"><ele>434.653015</ele><time>2008-07-27T10:19:48Z</time></trkpt>
<trkpt lat="47.35625901" lon="7.09695096"><ele>434.653015</ele><time>2008-07-27T10:19:57Z</time></trkpt>
<trkpt lat="47.35623999" lon="7.09698097"><ele>434.653015</ele><time>2008-07-27T10:20:10Z</time></trkpt>
<trkpt lat="47.35617201" lon="7.09717602"><ele>434.173004</ele><time>2008-07-27T10:20:18Z</time></trkpt>
<trkpt lat="47.35594796" lon="7.09771900"><ele>433.691986</ele><time>2008-07-27T10:20:28Z</time></trkpt>
<trkpt lat="47.35589096" lon="7.09795704"><ele>435.61499</ele><time>2008-07-27T10:20:36Z</time></trkpt>
<trkpt lat="47.35590203" lon="7.09797196"><ele>435.61499</ele><time>2008-07-27T10:20:40Z</time></trkpt>
<trkpt lat="47.35579700" lon="7.09833104"><ele>437.057007</ele><time>2008-07-27T10:21:26Z</time></trkpt>
<trkpt lat="47.35572400" lon="7.09891501"><ele>437.536987</ele><time>2008-07-27T10:21:40Z</time></trkpt>
<trkpt lat="47.35569801" lon="7.09915297"><ele>438.498993</ele><time>2008-07-27T10:21:47Z</time></trkpt>
<trkpt lat="47.35564101" lon="7.09973400"><ele>438.979004</ele><time>2008-07-27T10:22:04Z</time></trkpt>
<trkpt lat="47.35563498" lon="7.09981003"><ele>438.979004</ele><time>2008-07-27T10:22:06Z</time></trkpt>
<trkpt lat="47.35561696" lon="7.10004003"><ele>438.018005</ele><time>2008-07-27T10:22:11Z</time></trkpt>
<trkpt lat="47.35556197" lon="7.10039601"><ele>438.498993</ele><time>2008-07-27T10:22:18Z</time></trkpt>
<trkpt lat="47.35550397" lon="7.10064696"><ele>440.902008</ele><time>2008-07-27T10:22:28Z</time></trkpt>
<trkpt lat="47.35546902" lon="7.10074897"><ele>441.863007</ele><time>2008-07-27T10:22:33Z</time></trkpt>
<trkpt lat="47.35546198" lon="7.10081896"><ele>442.343994</ele><time>2008-07-27T10:22:36Z</time></trkpt>
<trkpt lat="47.35544597" lon="7.10104703"><ele>442.824005</ele><time>2008-07-27T10:22:45Z</time></trkpt>
<trkpt lat="47.35542803" lon="7.10159596"><ele>442.824005</ele><time>2008-07-27T10:22:56Z</time></trkpt>
<trkpt lat="47.35538000" lon="7.10215604"><ele>443.304993</ele><time>2008-07-27T10:23:08Z</time></trkpt>
<trkpt lat="47.35542501" lon="7.10271997"><ele>444.265991</ele><time>2008-07-27T10:23:20Z</time></trkpt>
<trkpt lat="47.35550003" lon="7.10326999"><ele>444.747009</ele><time>2008-07-27T10:23:30Z</time></trkpt>
<trkpt lat="47.35558804" lon="7.10381197"><ele>444.747009</ele><time>2008-07-27T10:23:40Z</time></trkpt>
<trkpt lat="47.35563196" lon="7.10407399"><ele>444.747009</ele><time>2008-07-27T10:23:44Z</time></trkpt>
<trkpt lat="47.35571201" lon="7.10441697"><ele>444.265991</ele><time>2008-07-27T10:23:49Z</time></trkpt>
<trkpt lat="47.35582902" lon="7.10475099"><ele>444.265991</ele><time>2008-07-27T10:23:54Z</time></trkpt>
<trkpt lat="47.35584604" lon="7.10487697"><ele>444.265991</ele><time>2008-07-27T10:23:56Z</time></trkpt>
<trkpt lat="47.35595098" lon="7.10526103"><ele>443.786011</ele><time>2008-07-27T10:24:02Z</time></trkpt>
<trkpt lat="47.35605097" lon="7.10555498"><ele>443.786011</ele><time>2008-07-27T10:24:07Z</time></trkpt>
<trkpt lat="47.35606899" lon="7.10561701"><ele>443.304993</ele><time>2008-07-27T10:24:08Z</time></trkpt>
<trkpt lat="47.35615801" lon="7.10583603"><ele>443.304993</ele><time>2008-07-27T10:24:12Z</time></trkpt>
<trkpt lat="47.35617704" lon="7.10589303"><ele>443.304993</ele><time>2008-07-27T10:24:13Z</time></trkpt>
<trkpt lat="47.35620797" lon="7.10606896"><ele>442.824005</ele><time>2008-07-27T10:24:16Z</time></trkpt>
<trkpt lat="47.35628801" lon="7.10639200"><ele>442.824005</ele><time>2008-07-27T10:24:21Z</time></trkpt>
<trkpt lat="47.35630796" lon="7.10652703"><ele>442.824005</ele><time>2008-07-27T10:24:23Z</time></trkpt>
<trkpt lat="47.35640402" lon="7.10698603"><ele>442.824005</ele><time>2008-07-27T10:24:30Z</time></trkpt>
<trkpt lat="47.35642003" lon="7.10711301"><ele>442.824005</ele><time>2008-07-27T10:24:32Z</time></trkpt>
<trkpt lat="47.35643101" lon="7.10724997"><ele>442.824005</ele><time>2008-07-27T10:24:34Z</time></trkpt>
<trkpt lat="47.35650703" lon="7.10786898"><ele>442.824005</ele><time>2008-07-27T10:24:43Z</time></trkpt>
<trkpt lat="47.35661197" lon="7.10837499"><ele>442.824005</ele><time>2008-07-27T10:24:50Z</time></trkpt>
<trkpt lat="47.35666101" lon="7.10858001"><ele>442.824005</ele><time>2008-07-27T10:24:53Z</time></trkpt>
<trkpt lat="47.35683996" lon="7.10912299"><ele>442.824005</ele><time>2008-07-27T10:25:01Z</time></trkpt>
<trkpt lat="47.35691900" lon="7.10932198"><ele>442.824005</ele><time>2008-07-27T10:25:04Z</time></trkpt>
<trkpt lat="47.35713702" lon="7.10985197"><ele>443.786011</ele><time>2008-07-27T10:25:14Z</time></trkpt>
<trkpt lat="47.35727004" lon="7.11034197"><ele>445.227997</ele><time>2008-07-27T10:25:26Z</time></trkpt>
<trkpt lat="47.35735503" lon="7.11088696"><ele>445.708008</ele><time>2008-07-27T10:25:38Z</time></trkpt>
<trkpt lat="47.35745301" lon="7.11141603"><ele>447.149994</ele><time>2008-07-27T10:25:50Z</time></trkpt>
<trkpt lat="47.35752602" lon="7.11193504"><ele>447.631012</ele><time>2008-07-27T10:26:02Z</time></trkpt>
<trkpt lat="47.35763700" lon="7.11243996"><ele>448.112</ele><time>2008-07-27T10:26:11Z</time></trkpt>
<trkpt lat="47.35774303" lon="7.11298303"><ele>448.112</ele><time>2008-07-27T10:26:21Z</time></trkpt>
<trkpt lat="47.35776801" lon="7.11309702"><ele>448.112</ele><time>2008-07-27T10:26:23Z</time></trkpt>
<trkpt lat="47.35787999" lon="7.11371301"><ele>448.112</ele><time>2008-07-27T10:26:33Z</time></trkpt>
<trkpt lat="47.35791100" lon="7.11392599"><ele>448.112</ele><time>2008-07-27T10:26:36Z</time></trkpt>
<trkpt lat="47.35798602" lon="7.11456000"><ele>448.112</ele><time>2008-07-27T10:26:45Z</time></trkpt>
<trkpt lat="47.35800597" lon="7.11511496"><ele>446.670013</ele><time>2008-07-27T10:26:52Z</time></trkpt>
<trkpt lat="47.35800002" lon="7.11570304"><ele>446.188995</ele><time>2008-07-27T10:26:59Z</time></trkpt>
<trkpt lat="47.35799599" lon="7.11604703"><ele>445.708008</ele><time>2008-07-27T10:27:03Z</time></trkpt>
<trkpt lat="47.35801804" lon="7.11638499"><ele>444.747009</ele><time>2008-07-27T10:27:07Z</time></trkpt>
<trkpt lat="47.35808803" lon="7.11680702"><ele>444.265991</ele><time>2008-07-27T10:27:12Z</time></trkpt>
<trkpt lat="47.35828802" lon="7.11741404"><ele>442.824005</ele><time>2008-07-27T10:27:20Z</time></trkpt>
<trkpt lat="47.35845499" lon="7.11794000"><ele>442.343994</ele><time>2008-07-27T10:27:27Z</time></trkpt>
<trkpt lat="47.35847603" lon="7.11801703"><ele>442.343994</ele><time>2008-07-27T10:27:28Z</time></trkpt>
<trkpt lat="47.35857300" lon="7.11863897"><ele>442.343994</ele><time>2008-07-27T10:27:36Z</time></trkpt>
<trkpt lat="47.35862497" lon="7.11886796"><ele>441.863007</ele><time>2008-07-27T10:27:39Z</time></trkpt>
<trkpt lat="47.35876797" lon="7.11922402"><ele>442.343994</ele><time>2008-07-27T10:27:44Z</time></trkpt>
<trkpt lat="47.35885799" lon="7.11948998"><ele>442.343994</ele><time>2008-07-27T10:27:48Z</time></trkpt>
<trkpt lat="47.35897701" lon="7.11983196"><ele>442.343994</ele><time>2008-07-27T10:27:53Z</time></trkpt>
<trkpt lat="47.35913702" lon="7.12042901"><ele>442.343994</ele><time>2008-07-27T10:28:01Z</time></trkpt>
<trkpt lat="47.35928496" lon="7.12085397"><ele>441.863007</ele><time>2008-07-27T10:28:07Z</time></trkpt>
<trkpt lat="47.35948797" lon="7.12132604"><ele>441.863007</ele><time>2008-07-27T10:28:14Z</time></trkpt>
<trkpt lat="47.35968897" lon="7.12186600"><ele>441.863007</ele><time>2008-07-27T10:28:23Z</time></trkpt>
<trkpt lat="47.35977497" lon="7.12211704"><ele>441.863007</ele><time>2008-07-27T10:28:30Z</time></trkpt>
<trkpt lat="47.35979903" lon="7.12266798"><ele>441.381989</ele><time>2008-07-27T10:28:42Z</time></trkpt>
<trkpt lat="47.35977799" lon="7.12285004"><ele>441.381989</ele><time>2008-07-27T10:28:45Z</time></trkpt>
<trkpt lat="47.35971303" lon="7.12347801"><ele>441.863007</ele><time>2008-07-27T10:28:55Z</time></trkpt>
<trkpt lat="47.35965704" lon="7.12372402"><ele>441.863007</ele><time>2008-07-27T10:28:59Z</time></trkpt>
<trkpt lat="47.35941899" lon="7.12422299"><ele>441.863007</ele><time>2008-07-27T10:29:08Z</time></trkpt>
<trkpt lat="47.35921497" lon="7.12467897"><ele>441.863007</ele><time>2008-07-27T10:29:16Z</time></trkpt>
<trkpt lat="47.35919796" lon="7.12473798"><ele>441.863007</ele><time>2008-07-27T10:29:17Z</time></trkpt>
<trkpt lat="47.35902403" lon="7.12529998"><ele>441.863007</ele><time>2008-07-27T10:29:25Z</time></trkpt>
<trkpt lat="47.35880200" lon="7.12576803"><ele>441.863007</ele><time>2008-07-27T10:29:33Z</time></trkpt>
<trkpt lat="47.35856596" lon="7.12624102"><ele>442.824005</ele><time>2008-07-27T10:29:42Z</time></trkpt>
<trkpt lat="47.35842397" lon="7.12654302"><ele>442.824005</ele><time>2008-07-27T10:29:48Z</time></trkpt>
<trkpt lat="47.35814402" lon="7.12702498"><ele>443.304993</ele><time>2008-07-27T10:29:58Z</time></trkpt>
<trkpt lat="47.35807898" lon="7.12712598"><ele>443.786011</ele><time>2008-07-27T10:30:00Z</time></trkpt>
<trkpt lat="47.35779600" lon="7.12761397"><ele>443.786011</ele><time>2008-07-27T10:30:11Z</time></trkpt>
<trkpt lat="47.35775904" lon="7.12771196"><ele>444.265991</ele><time>2008-07-27T10:30:13Z</time></trkpt>
<trkpt lat="47.35768603" lon="7.12832300"><ele>445.227997</ele><time>2008-07-27T10:30:24Z</time></trkpt>
<trkpt lat="47.35763004" lon="7.12885399"><ele>445.708008</ele><time>2008-07-27T10:30:33Z</time></trkpt>
<trkpt lat="47.35761998" lon="7.12938298"><ele>446.188995</ele><time>2008-07-27T10:30:42Z</time></trkpt>
<trkpt lat="47.35760397" lon="7.12965304"><ele>446.188995</ele><time>2008-07-27T10:30:47Z</time></trkpt>
<trkpt lat="47.35761101" lon="7.13000600"><ele>446.188995</ele><time>2008-07-27T10:30:52Z</time></trkpt>
<trkpt lat="47.35762602" lon="7.13044303"><ele>446.670013</ele><time>2008-07-27T10:30:58Z</time></trkpt>
<trkpt lat="47.35762401" lon="7.13058301"><ele>446.188995</ele><time>2008-07-27T10:31:00Z</time></trkpt>
<trkpt lat="47.35761504" lon="7.13100797"><ele>445.708008</ele><time>2008-07-27T10:31:06Z</time></trkpt>
<trkpt lat="47.35772300" lon="7.13163100"><ele>445.708008</ele><time>2008-07-27T10:31:14Z</time></trkpt>
<trkpt lat="47.35784998" lon="7.13217398"><ele>445.708008</ele><time>2008-07-27T10:31:21Z</time></trkpt>
<trkpt lat="47.35795903" lon="7.13271696"><ele>445.227997</ele><time>2008-07-27T10:31:28Z</time></trkpt>
<trkpt lat="47.35807504" lon="7.13326002"><ele>445.227997</ele><time>2008-07-27T10:31:35Z</time></trkpt>
<trkpt lat="47.35813698" lon="7.13348801"><ele>445.227997</ele><time>2008-07-27T10:31:38Z</time></trkpt>
<trkpt lat="47.35835499" lon="7.13405798"><ele>445.227997</ele><time>2008-07-27T10:31:46Z</time></trkpt>
<trkpt lat="47.35853403" lon="7.13456601"><ele>445.708008</ele><time>2008-07-27T10:31:53Z</time></trkpt>
<trkpt lat="47.35869798" lon="7.13506096"><ele>445.227997</ele><time>2008-07-27T10:32:00Z</time></trkpt>
<trkpt lat="47.35879697" lon="7.13557804"><ele>445.227997</ele><time>2008-07-27T10:32:07Z</time></trkpt>
<trkpt lat="47.35883402" lon="7.13602597"><ele>445.708008</ele><time>2008-07-27T10:32:13Z</time></trkpt>
<trkpt lat="47.35886302" lon="7.13636904"><ele>445.708008</ele><time>2008-07-27T10:32:18Z</time></trkpt>
<trkpt lat="47.35885397" lon="7.13676601"><ele>445.708008</ele><time>2008-07-27T10:32:24Z</time></trkpt>
<trkpt lat="47.35879303" lon="7.13726699"><ele>445.708008</ele><time>2008-07-27T10:32:31Z</time></trkpt>
<trkpt lat="47.35873503" lon="7.13751300"><ele>446.188995</ele><time>2008-07-27T10:32:35Z</time></trkpt>
<trkpt lat="47.35870603" lon="7.13770000"><ele>446.670013</ele><time>2008-07-27T10:32:38Z</time></trkpt>
<trkpt lat="47.35864601" lon="7.13813603"><ele>446.670013</ele><time>2008-07-27T10:32:45Z</time></trkpt>
<trkpt lat="47.35850704" lon="7.13876098"><ele>447.149994</ele><time>2008-07-27T10:32:54Z</time></trkpt>
<trkpt lat="47.35846404" lon="7.13904102"><ele>447.149994</ele><time>2008-07-27T10:32:58Z</time></trkpt>
<trkpt lat="47.35835901" lon="7.13968098"><ele>446.670013</ele><time>2008-07-27T10:33:07Z</time></trkpt>
<trkpt lat="47.35823404" lon="7.14024902"><ele>446.670013</ele><time>2008-07-27T10:33:15Z</time></trkpt>
<trkpt lat="47.35812600" lon="7.14075898"><ele>446.670013</ele><time>2008-07-27T10:33:22Z</time></trkpt>
<trkpt lat="47.35810203" lon="7.14135996"><ele>446.670013</ele><time>2008-07-27T10:33:30Z</time></trkpt>
<trkpt lat="47.35814502" lon="7.14189003"><ele>447.149994</ele><time>2008-07-27T10:33:37Z</time></trkpt>
<trkpt lat="47.35818400" lon="7.14233302"><ele>446.670013</ele><time>2008-07-27T10:33:43Z</time></trkpt>
<trkpt lat="47.35829297" lon="7.14297800"><ele>446.670013</ele><time>2008-07-27T10:33:52Z</time></trkpt>
<trkpt lat="47.35830604" lon="7.14304900"><ele>446.670013</ele><time>2008-07-27T10:33:53Z</time></trkpt>
<trkpt lat="47.35843998" lon="7.14366599"><ele>447.149994</ele><time>2008-07-27T10:34:02Z</time></trkpt>
<trkpt lat="47.35855800" lon="7.14419397"><ele>446.670013</ele><time>2008-07-27T10:34:10Z</time></trkpt>
<trkpt lat="47.35869798" lon="7.14458004"><ele>445.708008</ele><time>2008-07-27T10:34:16Z</time></trkpt>
<trkpt lat="47.35889504" lon="7.14506904"><ele>444.747009</ele><time>2008-07-27T10:34:23Z</time></trkpt>
<trkpt lat="47.35904197" lon="7.14544203"><ele>444.265991</ele><time>2008-07-27T10:34:28Z</time></trkpt>
<trkpt lat="47.35917700" lon="7.14605802"><ele>444.265991</ele><time>2008-07-27T10:34:36Z</time></trkpt>
<trkpt lat="47.35926703" lon="7.14639204"><ele>445.708008</ele><time>2008-07-27T10:34:43Z</time></trkpt>
<trkpt lat="47.35934297" lon="7.14694801"><ele>445.708008</ele><time>2008-07-27T10:34:57Z</time></trkpt>
<trkpt lat="47.35940700" lon="7.14752502"><ele>445.227997</ele><time>2008-07-27T10:35:06Z</time></trkpt>
<trkpt lat="47.35946501" lon="7.14797202"><ele>444.747009</ele><time>2008-07-27T10:35:13Z</time></trkpt>
<trkpt lat="47.35957104" lon="7.14850000"><ele>444.265991</ele><time>2008-07-27T10:35:22Z</time></trkpt>
<trkpt lat="47.35964899" lon="7.14872296"><ele>444.265991</ele><time>2008-07-27T10:35:26Z</time></trkpt>
<trkpt lat="47.35967204" lon="7.14885397"><ele>443.786011</ele><time>2008-07-27T10:35:28Z</time></trkpt>
<trkpt lat="47.35970297" lon="7.14898297"><ele>443.786011</ele><time>2008-07-27T10:35:30Z</time></trkpt>
<trkpt lat="47.35974697" lon="7.14918497"><ele>443.786011</ele><time>2008-07-27T10:35:33Z</time></trkpt>
<trkpt lat="47.35993599" lon="7.14975804"><ele>443.786011</ele><time>2008-07-27T10:35:42Z</time></trkpt>
<trkpt lat="47.36003900" lon="7.14997698"><ele>444.265991</ele><time>2008-07-27T10:35:46Z</time></trkpt>
<trkpt lat="47.36014302" lon="7.15017596"><ele>444.265991</ele><time>2008-07-27T10:35:50Z</time></trkpt>
<trkpt lat="47.36040797" lon="7.15069899"><ele>444.265991</ele><time>2008-07-27T10:36:00Z</time></trkpt>
<trkpt lat="47.36063202" lon="7.15113896"><ele>444.265991</ele><time>2008-07-27T10:36:09Z</time></trkpt>
<trkpt lat="47.36090703" lon="7.15156702"><ele>444.265991</ele><time>2008-07-27T10:36:18Z</time></trkpt>
<trkpt lat="47.36118204" lon="7.15199500"><ele>444.265991</ele><time>2008-07-27T10:36:27Z</time></trkpt>
<trkpt lat="47.36136401" lon="7.15226096"><ele>443.786011</ele><time>2008-07-27T10:36:33Z</time></trkpt>
<trkpt lat="47.36161304" lon="7.15260403"><ele>444.265991</ele><time>2008-07-27T10:36:41Z</time></trkpt>
<trkpt lat="47.36188998" lon="7.15296202"><ele>443.786011</ele><time>2008-07-27T10:36:50Z</time></trkpt>
<trkpt lat="47.36216901" lon="7.15329101"><ele>444.265991</ele><time>2008-07-27T10:37:00Z</time></trkpt>
<trkpt lat="47.36240404" lon="7.15351003"><ele>443.786011</ele><time>2008-07-27T10:37:10Z</time></trkpt>
<trkpt lat="47.36267896" lon="7.15388102"><ele>444.265991</ele><time>2008-07-27T10:37:22Z</time></trkpt>
<trkpt lat="47.36292799" lon="7.15417103"><ele>444.747009</ele><time>2008-07-27T10:37:31Z</time></trkpt>
<trkpt lat="47.36322002" lon="7.15448803"><ele>445.227997</ele><time>2008-07-27T10:37:41Z</time></trkpt>
<trkpt lat="47.36352403" lon="7.15477897"><ele>445.227997</ele><time>2008-07-27T10:37:53Z</time></trkpt>
</trkseg></trk></gpx>